Time,TemperatureF,DewpointF,PressureIn,WindDirection,WindDirectionDegrees,WindSpeedMPH,WindSpeedGustMPH,Humidity,HourlyPrecipIn,Conditions,Clouds,dailyrainin,SoftwareType,DateUTC
2013-08-25 00:00:00,70.2,30.7,25.07,South,181,4.0,5.8,23,0.00,,---,0.00,VWS V14.01,2013-08-25 05:00:00,
2013-08-25 00:02:00,69.8,30.4,25.07,South,181,4.0,4.0,23,0.00,,---,0.00,VWS V14.01,2013-08-25 05:02:00,
2013-08-25 00:03:00,69.8,30.4,25.07,South,181,4.0,4.0,23,0.00,,---,0.00,VWS V14.01,2013-08-25 05:03:00,
2013-08-25 00:04:00,69.8,30.4,25.07,South,173,4.9,4.9,23,0.00,,---,0.00,VWS V14.01,2013-08-25 05:04:00,
2013-08-25 00:05:00,69.8,30.4,25.07,South,173,4.9,4.9,23,0.00,,---,0.00,VWS V14.01,2013-08-25 05:05:00,
2013-08-25 00:08:00,69.8,30.4,25.07,SSE,163,5.4,5.4,23,0.00,,---,0.00,VWS V14.01,2013-08-25 05:08:00,
2013-08-25 00:09:00,69.8,30.4,25.07,SSE,164,4.9,4.9,23,0.00,,---,0.00,VWS V14.01,2013-08-25 05:09:00,
2013-08-25 00:10:00,69.8,30.4,25.07,SSE,164,4.9,4.9,23,0.00,,---,0.00,VWS V14.01,2013-08-25 05:10:00,
2013-08-25 00:13:00,69.8,30.4,25.07,South,181,5.4,5.4,23,0.00,,---,0.00,VWS V14.01,2013-08-25 05:13:00,
2013-08-25 00:14:00,69.8,30.4,25.07,South,185,5.8,5.8,23,0.00,,---,0.00,VWS V14.01,2013-08-25 05:14:00,
2013-08-25 00:15:00,69.8,30.4,25.07,South,185,5.8,5.8,23,0.00,,---,0.00,VWS V14.01,2013-08-25 05:15:00,
2013-08-25 00:16:00,69.8,30.4,25.07,South,185,5.8,5.8,23,0.00,,---,0.00,VWS V14.01,2013-08-25 05:16:00,
2013-08-25 00:18:00,69.8,30.4,25.07,SSE,168,6.3,6.3,23,0.00,,---,0.00,VWS V14.01,2013-08-25 05:18:00,
2013-08-25 00:19:00,69.8,31.4,25.07,SSE,168,6.3,6.3,24,0.00,,---,0.00,VWS V14.01,2013-08-25 05:19:00,
2013-08-25 00:20:00,69.8,31.4,25.07,SSE,168,6.3,6.3,24,0.00,,---,0.00,VWS V14.01,2013-08-25 05:20:00,
2013-08-25 00:21:00,69.8,31.4,25.07,South,183,4.9,4.9,24,0.00,,---,0.00,VWS V14.01,2013-08-25 05:21:00,
2013-08-25 00:23:00,69.8,31.4,25.07,South,181,4.9,4.9,24,0.00,,---,0.00,VWS V14.01,2013-08-25 05:23:00,
2013-08-25 00:24:00,69.6,31.3,25.07,South,181,4.9,4.9,24,0.00,,---,0.00,VWS V14.01,2013-08-25 05:24:00,
2013-08-25 00:25:00,69.6,31.3,25.07,South,181,4.9,4.9,24,0.00,,---,0.00,VWS V14.01,2013-08-25 05:25:00,
2013-08-25 00:26:00,69.6,31.3,25.07,South,178,4.0,4.9,24,0.00,,---,0.00,VWS V14.01,2013-08-25 05:26:00,
2013-08-25 00:28:00,69.4,31.1,25.07,South,183,5.4,5.4,24,0.00,,---,0.00,VWS V14.01,2013-08-25 05:28:00,
2013-08-25 00:30:00,69.4,31.1,25.07,South,183,5.4,5.4,24,0.00,,---,0.00,VWS V14.01,2013-08-25 05:30:00,
2013-08-25 00:31:00,69.4,31.1,25.07,South,172,3.6,5.4,24,0.00,,---,0.00,VWS V14.01,2013-08-25 05:31:00,
2013-08-25 00:33:00,69.4,31.1,25.07,SSE,155,4.0,4.0,24,0.00,,---,0.00,VWS V14.01,2013-08-25 05:33:00,
2013-08-25 00:35:00,69.4,31.1,25.07,South,189,5.4,5.4,24,0.00,,---,0.00,VWS V14.01,2013-08-25 05:35:00,
2013-08-25 00:36:00,69.1,31.8,25.07,South,175,3.6,3.6,25,0.00,,---,0.00,VWS V14.01,2013-08-25 05:36:00,
2013-08-25 00:37:00,69.1,31.8,25.07,South,175,3.6,3.6,25,0.00,,---,0.00,VWS V14.01,2013-08-25 05:37:00,
2013-08-25 00:38:00,69.1,31.8,25.07,South,175,3.6,3.6,25,0.00,,---,0.00,VWS V14.01,2013-08-25 05:38:00,
2013-08-25 00:40:00,69.1,31.8,25.07,South,188,4.9,4.9,25,0.00,,---,0.00,VWS V14.01,2013-08-25 05:40:00,
2013-08-25 00:41:00,69.1,31.8,25.07,South,188,4.9,4.9,25,0.00,,---,0.00,VWS V14.01,2013-08-25 05:41:00,
2013-08-25 00:42:00,69.1,31.8,25.07,SSE,160,5.4,5.4,25,0.00,,---,0.00,VWS V14.01,2013-08-25 05:42:00,
2013-08-25 00:43:00,69.1,31.8,25.07,South,181,4.0,4.0,25,0.00,,---,0.00,VWS V14.01,2013-08-25 05:43:00,
2013-08-25 00:45:00,68.9,31.7,25.07,South,177,4.9,4.9,25,0.00,,---,0.00,VWS V14.01,2013-08-25 05:45:00,
2013-08-25 00:46:00,68.9,31.7,25.07,South,177,4.9,4.9,25,0.00,,---,0.00,VWS V14.01,2013-08-25 05:46:00,
2013-08-25 00:47:00,68.7,31.5,25.07,South,177,4.9,4.9,25,0.00,,---,0.00,VWS V14.01,2013-08-25 05:47:00,
2013-08-25 00:49:00,68.7,31.5,25.07,South,191,2.7,4.9,25,0.00,,---,0.00,VWS V14.01,2013-08-25 05:49:00,
2013-08-25 00:50:00,68.7,31.5,25.07,South,191,2.7,2.7,25,0.00,,---,0.00,VWS V14.01,2013-08-25 05:50:00,
2013-08-25 00:51:00,68.7,31.5,25.07,South,191,2.7,2.7,25,0.00,,---,0.00,VWS V14.01,2013-08-25 05:51:00,
2013-08-25 00:53:00,68.7,31.5,25.07,South,191,3.6,3.6,25,0.00,,---,0.00,VWS V14.01,2013-08-25 05:53:00,
2013-08-25 00:54:00,68.0,31.9,25.07,South,191,0.0,2.2,26,0.00,,---,0.00,VWS V14.01,2013-08-25 05:54:00,
2013-08-25 00:55:00,68.0,31.9,25.07,South,191,0.0,2.2,26,0.00,,---,0.00,VWS V14.01,2013-08-25 05:55:00,
2013-08-25 00:56:00,68.0,31.9,25.07,SSW,193,0.0,0.0,26,0.00,,---,0.00,VWS V14.01,2013-08-25 05:56:00,
2013-08-25 00:57:00,68.0,31.9,25.07,SSW,193,0.0,0.0,26,0.00,,---,0.00,VWS V14.01,2013-08-25 05:57:00,
2013-08-25 00:58:00,68.0,31.9,25.07,SSW,193,0.0,0.0,26,0.00,,---,0.00,VWS V14.01,2013-08-25 05:58:00,
2013-08-25 00:59:00,68.0,31.9,25.07,SSW,193,0.0,0.0,26,0.00,,---,0.00,VWS V14.01,2013-08-25 05:59:00,
2013-08-25 01:00:00,68.0,31.9,25.07,SSW,193,0.0,0.0,26,0.00,,---,0.00,VWS V14.01,2013-08-25 06:00:00,
2013-08-25 01:02:00,68.0,31.9,25.07,SSW,193,0.0,0.0,26,0.00,,---,0.00,VWS V14.01,2013-08-25 06:02:00,
2013-08-25 01:03:00,66.9,31.9,25.07,SSW,193,0.0,0.0,27,0.00,,---,0.00,VWS V14.01,2013-08-25 06:03:00,
2013-08-25 01:04:00,66.6,31.6,25.07,SSW,193,0.0,0.0,27,0.00,,---,0.00,VWS V14.01,2013-08-25 06:04:00,
2013-08-25 01:05:00,66.6,31.6,25.07,SSW,193,0.0,0.0,27,0.00,,---,0.00,VWS V14.01,2013-08-25 06:05:00,
2013-08-25 01:07:00,66.6,31.6,25.07,SSW,193,0.0,0.0,27,0.00,,---,0.00,VWS V14.01,2013-08-25 06:07:00,
2013-08-25 01:08:00,66.6,31.6,25.07,SSW,193,0.0,0.0,27,0.00,,---,0.00,VWS V14.01,2013-08-25 06:08:00,
2013-08-25 01:09:00,66.6,31.6,25.07,SSW,193,0.0,0.0,27,0.00,,---,0.00,VWS V14.01,2013-08-25 06:09:00,
2013-08-25 01:10:00,65.8,31.9,25.07,SSW,193,0.0,0.0,28,0.00,,---,0.00,VWS V14.01,2013-08-25 06:10:00,
2013-08-25 01:12:00,65.8,31.9,25.07,SSW,193,0.0,0.0,28,0.00,,---,0.00,VWS V14.01,2013-08-25 06:12:00,
2013-08-25 01:14:00,65.7,32.6,25.07,SSW,193,0.0,0.0,29,0.00,,---,0.00,VWS V14.01,2013-08-25 06:14:00,
2013-08-25 01:16:00,65.7,32.6,25.07,SSW,193,0.0,0.0,29,0.00,,---,0.00,VWS V14.01,2013-08-25 06:16:00,
2013-08-25 01:17:00,65.7,32.6,25.07,SSW,193,0.0,0.0,29,0.00,,---,0.00,VWS V14.01,2013-08-25 06:17:00,
2013-08-25 01:19:00,65.7,34.2,25.07,SSW,193,0.0,0.0,31,0.00,,---,0.00,VWS V14.01,2013-08-25 06:19:00,
2013-08-25 01:20:00,65.7,35.0,25.07,SSW,193,0.0,0.0,32,0.00,,---,0.00,VWS V14.01,2013-08-25 06:20:00,
2013-08-25 01:21:00,65.7,35.0,25.07,SSW,193,0.0,0.0,32,0.00,,---,0.00,VWS V14.01,2013-08-25 06:21:00,
2013-08-25 01:22:00,65.7,35.0,25.07,SSW,193,0.0,0.0,32,0.00,,---,0.00,VWS V14.01,2013-08-25 06:22:00,
2013-08-25 01:24:00,65.7,35.0,25.07,SSW,193,0.0,0.0,32,0.00,,---,0.00,VWS V14.01,2013-08-25 06:24:00,
2013-08-25 01:25:00,65.7,35.0,25.07,SSW,193,0.0,0.0,32,0.00,,---,0.00,VWS V14.01,2013-08-25 06:25:00,
2013-08-25 01:26:00,65.7,35.0,25.07,SSW,193,0.0,0.0,32,0.00,,---,0.00,VWS V14.01,2013-08-25 06:26:00,
2013-08-25 01:27:00,65.7,35.0,25.07,SSW,193,0.0,0.0,32,0.00,,---,0.00,VWS V14.01,2013-08-25 06:27:00,
2013-08-25 01:28:00,65.3,34.7,25.07,SSW,193,0.0,0.0,32,0.00,,---,0.00,VWS V14.01,2013-08-25 06:28:00,
2013-08-25 01:29:00,65.3,34.7,25.07,SSW,193,0.0,0.0,32,0.00,,---,0.00,VWS V14.01,2013-08-25 06:29:00,
2013-08-25 01:30:00,65.3,34.7,25.07,SSW,193,0.0,0.0,32,0.00,,---,0.00,VWS V14.01,2013-08-25 06:30:00,
2013-08-25 01:31:00,65.3,34.7,25.07,SSW,195,0.0,0.0,32,0.00,,---,0.00,VWS V14.01,2013-08-25 06:31:00,
2013-08-25 01:32:00,65.3,34.7,25.07,SSW,195,0.0,0.0,32,0.00,,---,0.00,VWS V14.01,2013-08-25 06:32:00,
2013-08-25 01:33:00,65.3,34.7,25.07,SW,236,0.0,0.0,32,0.00,,---,0.00,VWS V14.01,2013-08-25 06:33:00,
2013-08-25 01:34:00,64.2,35.3,25.07,SW,236,0.0,0.0,34,0.00,,---,0.00,VWS V14.01,2013-08-25 06:34:00,
2013-08-25 01:35:00,64.2,35.3,25.07,WSW,242,0.0,0.0,34,0.00,,---,0.00,VWS V14.01,2013-08-25 06:35:00,
2013-08-25 01:36:00,64.2,35.3,25.07,WSW,242,0.0,0.0,34,0.00,,---,0.00,VWS V14.01,2013-08-25 06:36:00,
2013-08-25 01:37:00,64.0,35.1,25.07,WSW,242,0.0,0.0,34,0.00,,---,0.00,VWS V14.01,2013-08-25 06:37:00,
2013-08-25 01:38:00,64.0,35.1,25.07,WSW,242,0.0,0.0,34,0.00,,---,0.00,VWS V14.01,2013-08-25 06:38:00,
2013-08-25 01:39:00,64.0,35.1,25.07,WSW,242,0.0,0.0,34,0.00,,---,0.00,VWS V14.01,2013-08-25 06:39:00,
2013-08-25 01:41:00,64.0,35.1,25.07,WSW,242,0.0,0.0,34,0.00,,---,0.00,VWS V14.01,2013-08-25 06:41:00,
2013-08-25 01:42:00,63.5,34.7,25.07,WSW,242,0.0,0.0,34,0.00,,---,0.00,VWS V14.01,2013-08-25 06:42:00,
2013-08-25 01:43:00,63.5,34.7,25.07,WSW,242,0.0,0.0,34,0.00,,---,0.00,VWS V14.01,2013-08-25 06:43:00,
2013-08-25 01:44:00,63.5,34.7,25.07,WSW,242,0.0,0.0,34,0.00,,---,0.00,VWS V14.01,2013-08-25 06:44:00,
2013-08-25 01:46:00,63.3,35.2,25.07,WSW,242,0.0,0.0,35,0.00,,---,0.00,VWS V14.01,2013-08-25 06:46:00,
2013-08-25 01:47:00,63.3,35.2,25.07,WSW,242,0.0,0.0,35,0.00,,---,0.00,VWS V14.01,2013-08-25 06:47:00,
2013-08-25 01:49:00,63.3,35.2,25.07,WSW,242,0.0,0.0,35,0.00,,---,0.00,VWS V14.01,2013-08-25 06:49:00,
2013-08-25 01:50:00,63.3,35.2,25.07,WSW,242,0.0,0.0,35,0.00,,---,0.00,VWS V14.01,2013-08-25 06:50:00,
2013-08-25 01:51:00,63.3,35.2,25.07,WSW,242,0.0,0.0,35,0.00,,---,0.00,VWS V14.01,2013-08-25 06:51:00,
2013-08-25 01:52:00,63.3,35.2,25.07,West,272,0.0,0.0,35,0.00,,---,0.00,VWS V14.01,2013-08-25 06:52:00,
2013-08-25 01:53:00,63.3,35.2,25.07,West,272,0.0,0.0,35,0.00,,---,0.00,VWS V14.01,2013-08-25 06:53:00,
2013-08-25 01:54:00,63.0,35.6,25.07,West,272,0.0,0.0,36,0.00,,---,0.00,VWS V14.01,2013-08-25 06:54:00,
2013-08-25 01:55:00,63.0,35.6,25.07,West,272,0.0,0.0,36,0.00,,---,0.00,VWS V14.01,2013-08-25 06:55:00,
2013-08-25 01:56:00,63.0,35.6,25.07,West,278,0.0,0.0,36,0.00,,---,0.00,VWS V14.01,2013-08-25 06:56:00,
2013-08-25 01:57:00,63.0,35.6,25.07,West,278,0.0,0.0,36,0.00,,---,0.00,VWS V14.01,2013-08-25 06:57:00,
2013-08-25 01:58:00,62.8,35.5,25.07,West,278,0.0,0.0,36,0.00,,---,0.00,VWS V14.01,2013-08-25 06:58:00,
2013-08-25 01:59:00,62.8,35.5,25.07,West,278,0.0,0.0,36,0.00,,---,0.00,VWS V14.01,2013-08-25 06:59:00,
2013-08-25 02:00:00,62.8,35.5,25.07,West,278,0.0,0.0,36,0.00,,---,0.00,VWS V14.01,2013-08-25 07:00:00,
2013-08-25 02:01:00,62.8,35.5,25.07,WNW,283,0.0,0.0,36,0.00,,---,0.00,VWS V14.01,2013-08-25 07:01:00,
2013-08-25 02:02:00,62.8,35.5,25.07,WNW,283,0.0,0.0,36,0.00,,---,0.00,VWS V14.01,2013-08-25 07:02:00,
2013-08-25 02:03:00,62.2,35.7,25.07,WNW,283,0.0,0.0,37,0.00,,---,0.00,VWS V14.01,2013-08-25 07:03:00,
2013-08-25 02:04:00,62.2,35.7,25.07,WNW,295,0.0,0.0,37,0.00,,---,0.00,VWS V14.01,2013-08-25 07:04:00,
2013-08-25 02:05:00,62.2,35.7,25.07,WNW,295,0.0,0.0,37,0.00,,---,0.00,VWS V14.01,2013-08-25 07:05:00,
2013-08-25 02:06:00,62.2,35.7,25.07,WNW,296,0.0,0.0,37,0.00,,---,0.00,VWS V14.01,2013-08-25 07:06:00,
2013-08-25 02:07:00,62.2,35.7,25.07,WNW,296,0.0,0.0,37,0.00,,---,0.00,VWS V14.01,2013-08-25 07:07:00,
2013-08-25 02:08:00,62.2,35.7,25.07,WNW,296,0.0,0.0,37,0.00,,---,0.00,VWS V14.01,2013-08-25 07:08:00,
2013-08-25 02:09:00,62.2,35.7,25.07,WNW,296,0.0,0.0,37,0.00,,---,0.00,VWS V14.01,2013-08-25 07:09:00,
2013-08-25 02:10:00,62.2,35.7,25.07,WNW,296,0.0,0.0,37,0.00,,---,0.00,VWS V14.01,2013-08-25 07:10:00,
2013-08-25 02:12:00,61.7,36.5,25.07,WNW,296,0.0,0.0,39,0.00,,---,0.00,VWS V14.01,2013-08-25 07:12:00,
2013-08-25 02:13:00,61.7,36.5,25.07,WNW,296,0.0,0.0,39,0.00,,---,0.00,VWS V14.01,2013-08-25 07:13:00,
2013-08-25 02:15:00,61.7,36.5,25.07,WNW,296,0.0,0.0,39,0.00,,---,0.00,VWS V14.01,2013-08-25 07:15:00,
2013-08-25 02:17:00,61.3,36.2,25.07,WNW,296,0.0,0.0,39,0.00,,---,0.00,VWS V14.01,2013-08-25 07:17:00,
2013-08-25 02:18:00,61.3,36.2,25.07,WNW,296,0.0,0.0,39,0.00,,---,0.00,VWS V14.01,2013-08-25 07:18:00,
2013-08-25 02:20:00,61.2,36.0,25.07,WNW,296,0.0,0.0,39,0.00,,---,0.00,VWS V14.01,2013-08-25 07:20:00,
2013-08-25 02:21:00,61.0,36.5,25.07,WNW,296,0.0,0.0,40,0.00,,---,0.00,VWS V14.01,2013-08-25 07:21:00,
2013-08-25 02:22:00,61.0,36.5,25.07,WNW,296,0.0,0.0,40,0.00,,---,0.00,VWS V14.01,2013-08-25 07:22:00,
2013-08-25 02:23:00,61.0,36.5,25.07,WNW,296,0.0,0.0,40,0.00,,---,0.00,VWS V14.01,2013-08-25 07:23:00,
2013-08-25 02:25:00,61.0,36.5,25.07,WNW,296,0.0,0.0,40,0.00,,---,0.00,VWS V14.01,2013-08-25 07:25:00,
2013-08-25 02:26:00,61.0,36.5,25.07,WNW,296,0.0,0.0,40,0.00,,---,0.00,VWS V14.01,2013-08-25 07:26:00,
2013-08-25 02:27:00,61.0,36.5,25.07,WNW,296,0.0,0.0,40,0.00,,---,0.00,VWS V14.01,2013-08-25 07:27:00,
2013-08-25 02:28:00,61.0,36.5,25.07,WNW,296,0.0,0.0,40,0.00,,---,0.00,VWS V14.01,2013-08-25 07:28:00,
2013-08-25 02:29:00,60.8,37.0,25.07,WNW,296,0.0,0.0,41,0.00,,---,0.00,VWS V14.01,2013-08-25 07:29:00,
2013-08-25 02:30:00,60.8,37.0,25.07,WNW,296,0.0,0.0,41,0.00,,---,0.00,VWS V14.01,2013-08-25 07:30:00,
2013-08-25 02:32:00,60.8,37.0,25.07,WNW,296,0.0,0.0,41,0.00,,---,0.00,VWS V14.01,2013-08-25 07:32:00,
2013-08-25 02:33:00,60.8,37.0,25.07,WNW,296,0.0,0.0,41,0.00,,---,0.00,VWS V14.01,2013-08-25 07:33:00,
2013-08-25 02:34:00,60.8,37.0,25.07,WNW,296,0.0,0.0,41,0.00,,---,0.00,VWS V14.01,2013-08-25 07:34:00,
2013-08-25 02:35:00,60.8,37.0,25.07,WNW,296,0.0,0.0,41,0.00,,---,0.00,VWS V14.01,2013-08-25 07:35:00,
2013-08-25 02:37:00,60.8,37.0,25.07,WNW,296,0.0,0.0,41,0.00,,---,0.00,VWS V14.01,2013-08-25 07:37:00,
2013-08-25 02:38:00,60.4,37.3,25.07,WNW,296,0.0,0.0,42,0.00,,---,0.00,VWS V14.01,2013-08-25 07:38:00,
2013-08-25 02:39:00,60.4,37.3,25.07,WNW,296,0.0,0.0,42,0.00,,---,0.00,VWS V14.01,2013-08-25 07:39:00,
2013-08-25 02:41:00,60.4,37.3,25.07,WNW,296,0.0,0.0,42,0.00,,---,0.00,VWS V14.01,2013-08-25 07:41:00,
2013-08-25 02:42:00,60.4,37.3,25.07,WNW,296,0.0,0.0,42,0.00,,---,0.00,VWS V14.01,2013-08-25 07:42:00,
2013-08-25 02:43:00,60.4,37.3,25.07,WNW,296,0.0,0.0,42,0.00,,---,0.00,VWS V14.01,2013-08-25 07:43:00,
2013-08-25 02:44:00,60.1,37.5,25.07,WNW,296,0.0,0.0,43,0.00,,---,0.00,VWS V14.01,2013-08-25 07:44:00,
2013-08-25 02:46:00,60.1,38.1,25.07,WNW,296,0.0,0.0,44,0.00,,---,0.00,VWS V14.01,2013-08-25 07:46:00,
2013-08-25 02:48:00,60.1,38.1,25.07,WNW,298,0.0,0.0,44,0.00,,---,0.00,VWS V14.01,2013-08-25 07:48:00,
2013-08-25 02:49:00,60.1,38.1,25.07,WNW,298,0.0,0.0,44,0.00,,---,0.00,VWS V14.01,2013-08-25 07:49:00,
2013-08-25 02:52:00,60.1,38.1,25.07,WNW,298,0.0,0.0,44,0.00,,---,0.00,VWS V14.01,2013-08-25 07:52:00,
2013-08-25 02:53:00,60.1,38.1,25.07,NW,313,0.0,0.0,44,0.00,,---,0.00,VWS V14.01,2013-08-25 07:53:00,
2013-08-25 02:54:00,60.1,38.1,25.07,NW,314,2.7,2.7,44,0.00,,---,0.00,VWS V14.01,2013-08-25 07:54:00,
2013-08-25 02:55:00,59.7,38.4,25.07,NW,315,2.7,2.7,45,0.00,,---,0.00,VWS V14.01,2013-08-25 07:55:00,
2013-08-25 02:57:00,59.7,38.4,25.07,NW,315,0.0,0.0,45,0.00,,---,0.00,VWS V14.01,2013-08-25 07:57:00,
2013-08-25 02:58:00,59.7,38.4,25.07,NW,315,0.0,0.0,45,0.00,,---,0.00,VWS V14.01,2013-08-25 07:58:00,
2013-08-25 02:59:00,59.7,38.4,25.07,NW,315,0.0,0.0,45,0.00,,---,0.00,VWS V14.01,2013-08-25 07:59:00,
2013-08-25 03:00:00,59.7,38.4,25.07,NW,315,0.0,0.0,45,0.00,,---,0.00,VWS V14.01,2013-08-25 08:00:00,
2013-08-25 03:02:00,59.7,38.4,25.07,NW,315,0.0,0.0,45,0.00,,---,0.00,VWS V14.01,2013-08-25 08:02:00,
2013-08-25 03:04:00,59.4,38.6,25.07,NW,315,0.0,0.0,46,0.00,,---,0.00,VWS V14.01,2013-08-25 08:04:00,
2013-08-25 03:05:00,59.4,38.6,25.07,NW,315,0.0,0.0,46,0.00,,---,0.00,VWS V14.01,2013-08-25 08:05:00,
2013-08-25 03:07:00,59.4,38.6,25.07,NW,315,0.0,0.0,46,0.00,,---,0.00,VWS V14.01,2013-08-25 08:07:00,
2013-08-25 03:09:00,59.2,38.4,25.07,NW,315,0.0,0.0,46,0.00,,---,0.00,VWS V14.01,2013-08-25 08:09:00,
2013-08-25 03:10:00,59.2,38.4,25.07,NW,315,0.0,0.0,46,0.00,,---,0.00,VWS V14.01,2013-08-25 08:10:00,
2013-08-25 03:12:00,59.2,39.0,25.07,NW,315,0.0,0.0,47,0.00,,---,0.00,VWS V14.01,2013-08-25 08:12:00,
2013-08-25 03:14:00,59.2,39.0,25.07,NW,315,0.0,0.0,47,0.00,,---,0.00,VWS V14.01,2013-08-25 08:14:00,
2013-08-25 03:15:00,59.2,39.0,25.07,NW,315,0.0,0.0,47,0.00,,---,0.00,VWS V14.01,2013-08-25 08:15:00,
2013-08-25 03:16:00,59.2,39.0,25.07,NW,315,0.0,0.0,47,0.00,,---,0.00,VWS V14.01,2013-08-25 08:16:00,
2013-08-25 03:17:00,59.2,39.0,25.07,NW,315,0.0,0.0,47,0.00,,---,0.00,VWS V14.01,2013-08-25 08:17:00,
2013-08-25 03:19:00,59.2,39.0,25.07,NW,315,0.0,0.0,47,0.00,,---,0.00,VWS V14.01,2013-08-25 08:19:00,
2013-08-25 03:20:00,59.2,39.0,25.07,NW,315,0.0,0.0,47,0.00,,---,0.00,VWS V14.01,2013-08-25 08:20:00,
2013-08-25 03:21:00,59.5,39.8,25.07,NW,315,0.0,0.0,48,0.00,,---,0.00,VWS V14.01,2013-08-25 08:21:00,
2013-08-25 03:22:00,59.5,39.8,25.07,NW,315,0.0,0.0,48,0.00,,---,0.00,VWS V14.01,2013-08-25 08:22:00,
2013-08-25 03:25:00,59.5,39.8,25.07,NW,315,0.0,0.0,48,0.00,,---,0.00,VWS V14.01,2013-08-25 08:25:00,
2013-08-25 03:26:00,59.5,39.8,25.07,NW,315,0.0,0.0,48,0.00,,---,0.00,VWS V14.01,2013-08-25 08:26:00,
2013-08-25 03:27:00,59.5,39.8,25.07,NW,315,0.0,0.0,48,0.00,,---,0.00,VWS V14.01,2013-08-25 08:27:00,
2013-08-25 03:30:00,59.4,39.7,25.07,NW,315,0.0,0.0,48,0.00,,---,0.00,VWS V14.01,2013-08-25 08:30:00,
2013-08-25 03:31:00,59.2,39.5,25.07,NW,315,0.0,0.0,48,0.00,,---,0.00,VWS V14.01,2013-08-25 08:31:00,
2013-08-25 03:32:00,59.2,39.5,25.07,NW,315,0.0,0.0,48,0.00,,---,0.00,VWS V14.01,2013-08-25 08:32:00,
2013-08-25 03:35:00,59.2,39.5,25.07,NW,315,0.0,0.0,48,0.00,,---,0.00,VWS V14.01,2013-08-25 08:35:00,
2013-08-25 03:36:00,59.2,39.5,25.07,NW,315,0.0,0.0,48,0.00,,---,0.00,VWS V14.01,2013-08-25 08:36:00,
2013-08-25 03:37:00,58.8,39.2,25.07,NW,315,0.0,0.0,48,0.00,,---,0.00,VWS V14.01,2013-08-25 08:37:00,
2013-08-25 03:40:00,58.8,39.7,25.07,NW,315,0.0,0.0,49,0.00,,---,0.00,VWS V14.01,2013-08-25 08:40:00,
2013-08-25 03:41:00,58.8,39.7,25.07,NW,315,0.0,0.0,49,0.00,,---,0.00,VWS V14.01,2013-08-25 08:41:00,
2013-08-25 03:42:00,58.8,39.7,25.07,NW,315,0.0,0.0,49,0.00,,---,0.00,VWS V14.01,2013-08-25 08:42:00,
2013-08-25 03:43:00,58.8,39.7,25.07,NW,315,0.0,0.0,49,0.00,,---,0.00,VWS V14.01,2013-08-25 08:43:00,
2013-08-25 03:45:00,58.6,39.5,25.07,NW,315,0.0,0.0,49,0.00,,---,0.00,VWS V14.01,2013-08-25 08:45:00,
2013-08-25 03:46:00,58.5,39.4,25.07,NW,315,0.0,0.0,49,0.00,,---,0.00,VWS V14.01,2013-08-25 08:46:00,
2013-08-25 03:47:00,58.5,39.4,25.07,NW,315,0.0,0.0,49,0.00,,---,0.00,VWS V14.01,2013-08-25 08:47:00,
2013-08-25 03:48:00,58.5,39.4,25.07,NW,315,0.0,0.0,49,0.00,,---,0.00,VWS V14.01,2013-08-25 08:48:00,
2013-08-25 03:50:00,58.5,39.4,25.07,NW,315,0.0,0.0,49,0.00,,---,0.00,VWS V14.01,2013-08-25 08:50:00,
2013-08-25 03:51:00,58.5,39.4,25.07,NW,315,0.0,0.0,49,0.00,,---,0.00,VWS V14.01,2013-08-25 08:51:00,
2013-08-25 03:52:00,58.5,39.4,25.07,NW,315,0.0,0.0,49,0.00,,---,0.00,VWS V14.01,2013-08-25 08:52:00,
2013-08-25 03:53:00,58.5,39.4,25.07,NW,315,0.0,0.0,49,0.00,,---,0.00,VWS V14.01,2013-08-25 08:53:00,
2013-08-25 03:55:00,58.1,39.6,25.07,NW,315,0.0,0.0,50,0.00,,---,0.00,VWS V14.01,2013-08-25 08:55:00,
2013-08-25 03:56:00,58.1,39.6,25.07,NW,315,0.0,0.0,50,0.00,,---,0.00,VWS V14.01,2013-08-25 08:56:00,
2013-08-25 03:57:00,58.1,39.6,25.07,NW,315,0.0,0.0,50,0.00,,---,0.00,VWS V14.01,2013-08-25 08:57:00,
2013-08-25 03:58:00,58.1,39.6,25.07,NW,315,0.0,0.0,50,0.00,,---,0.00,VWS V14.01,2013-08-25 08:58:00,
2013-08-25 04:00:00,58.1,39.6,25.07,NW,315,0.0,0.0,50,0.00,,---,0.00,VWS V14.01,2013-08-25 09:00:00,
2013-08-25 04:01:00,58.1,39.6,25.07,NW,315,0.0,0.0,50,0.00,,---,0.00,VWS V14.01,2013-08-25 09:01:00,
2013-08-25 04:02:00,58.1,39.6,25.07,NW,315,0.0,0.0,50,0.00,,---,0.00,VWS V14.01,2013-08-25 09:02:00,
2013-08-25 04:04:00,58.1,39.6,25.07,NW,315,0.0,0.0,50,0.00,,---,0.00,VWS V14.01,2013-08-25 09:04:00,
2013-08-25 04:06:00,58.1,39.6,25.07,NW,315,0.0,0.0,50,0.00,,---,0.00,VWS V14.01,2013-08-25 09:06:00,
2013-08-25 04:08:00,58.1,39.6,25.07,NW,315,0.0,0.0,50,0.00,,---,0.00,VWS V14.01,2013-08-25 09:08:00,
2013-08-25 04:09:00,58.1,39.6,25.07,NW,315,0.0,0.0,50,0.00,,---,0.00,VWS V14.01,2013-08-25 09:09:00,
2013-08-25 04:11:00,57.7,39.8,25.07,NW,315,0.0,0.0,51,0.00,,---,0.00,VWS V14.01,2013-08-25 09:11:00,
2013-08-25 04:13:00,57.7,40.2,25.07,NW,315,0.0,0.0,52,0.00,,---,0.00,VWS V14.01,2013-08-25 09:13:00,
2013-08-25 04:14:00,57.7,40.2,25.07,NW,315,0.0,0.0,52,0.00,,---,0.00,VWS V14.01,2013-08-25 09:14:00,
2013-08-25 04:16:00,57.7,40.2,25.07,NW,315,0.0,0.0,52,0.00,,---,0.00,VWS V14.01,2013-08-25 09:16:00,
2013-08-25 04:18:00,57.7,40.7,25.07,NW,315,0.0,0.0,53,0.00,,---,0.00,VWS V14.01,2013-08-25 09:18:00,
2013-08-25 04:20:00,57.7,40.7,25.07,NW,315,0.0,0.0,53,0.00,,---,0.00,VWS V14.01,2013-08-25 09:20:00,
2013-08-25 04:21:00,57.7,40.7,25.07,NW,315,0.0,0.0,53,0.00,,---,0.00,VWS V14.01,2013-08-25 09:21:00,
2013-08-25 04:23:00,57.7,40.7,25.07,NW,315,0.0,0.0,53,0.00,,---,0.00,VWS V14.01,2013-08-25 09:23:00,
2013-08-25 04:25:00,57.7,40.7,25.07,NW,315,0.0,0.0,53,0.00,,---,0.00,VWS V14.01,2013-08-25 09:25:00,
2013-08-25 04:26:00,57.7,40.7,25.07,NW,315,0.0,0.0,53,0.00,,---,0.00,VWS V14.01,2013-08-25 09:26:00,
2013-08-25 04:27:00,57.7,40.7,25.07,NW,315,0.0,0.0,53,0.00,,---,0.00,VWS V14.01,2013-08-25 09:27:00,
2013-08-25 04:28:00,57.7,40.7,25.07,NW,315,0.0,0.0,53,0.00,,---,0.00,VWS V14.01,2013-08-25 09:28:00,
2013-08-25 04:30:00,57.7,41.2,25.07,NW,315,0.0,0.0,54,0.00,,---,0.00,VWS V14.01,2013-08-25 09:30:00,
2013-08-25 04:31:00,57.7,41.2,25.07,NW,315,0.0,0.0,54,0.00,,---,0.00,VWS V14.01,2013-08-25 09:31:00,
2013-08-25 04:32:00,57.7,41.2,25.07,NW,315,0.0,0.0,54,0.00,,---,0.00,VWS V14.01,2013-08-25 09:32:00,
2013-08-25 04:34:00,57.7,41.2,25.07,NW,322,2.7,4.0,54,0.00,,---,0.00,VWS V14.01,2013-08-25 09:34:00,
2013-08-25 04:36:00,57.6,41.5,25.07,NW,322,3.6,3.6,55,0.00,,---,0.00,VWS V14.01,2013-08-25 09:36:00,
2013-08-25 04:37:00,57.6,41.5,25.07,NW,322,3.6,3.6,55,0.00,,---,0.00,VWS V14.01,2013-08-25 09:37:00,
2013-08-25 04:39:00,57.6,42.0,25.07,NW,324,3.1,3.6,56,0.00,,---,0.00,VWS V14.01,2013-08-25 09:39:00,
2013-08-25 04:41:00,57.6,42.0,25.07,NW,324,3.1,3.1,56,0.00,,---,0.00,VWS V14.01,2013-08-25 09:41:00,
2013-08-25 04:42:00,57.4,41.8,25.07,NW,324,3.1,3.1,56,0.00,,---,0.00,VWS V14.01,2013-08-25 09:42:00,
2013-08-25 04:44:00,57.4,41.8,25.07,NW,324,0.0,0.0,56,0.00,,---,0.00,VWS V14.01,2013-08-25 09:44:00,
2013-08-25 04:46:00,57.4,41.8,25.07,NW,324,0.0,0.0,56,0.00,,---,0.00,VWS V14.01,2013-08-25 09:46:00,
2013-08-25 04:47:00,57.2,42.1,25.07,NW,324,0.0,0.0,57,0.00,,---,0.00,VWS V14.01,2013-08-25 09:47:00,
2013-08-25 04:48:00,57.2,42.1,25.07,NW,324,0.0,0.0,57,0.00,,---,0.00,VWS V14.01,2013-08-25 09:48:00,
2013-08-25 04:49:00,57.2,42.1,25.07,NW,324,0.0,0.0,57,0.00,,---,0.00,VWS V14.01,2013-08-25 09:49:00,
2013-08-25 04:51:00,57.2,42.1,25.07,NW,324,0.0,0.0,57,0.00,,---,0.00,VWS V14.01,2013-08-25 09:51:00,
2013-08-25 04:52:00,57.2,42.1,25.07,NW,324,0.0,0.0,57,0.00,,---,0.00,VWS V14.01,2013-08-25 09:52:00,
2013-08-25 04:53:00,57.2,42.1,25.07,NW,324,0.0,0.0,57,0.00,,---,0.00,VWS V14.01,2013-08-25 09:53:00,
2013-08-25 04:54:00,57.2,42.1,25.07,NW,324,0.0,0.0,57,0.00,,---,0.00,VWS V14.01,2013-08-25 09:54:00,
2013-08-25 04:57:00,57.0,42.0,25.07,NW,324,0.0,0.0,57,0.00,,---,0.00,VWS V14.01,2013-08-25 09:57:00,
2013-08-25 04:58:00,57.0,42.0,25.07,NW,324,0.0,0.0,57,0.00,,---,0.00,VWS V14.01,2013-08-25 09:58:00,
2013-08-25 04:59:00,57.0,42.0,25.07,NW,324,0.0,0.0,57,0.00,,---,0.00,VWS V14.01,2013-08-25 09:59:00,
2013-08-25 05:02:00,57.0,42.4,25.07,NW,324,0.0,0.0,58,0.00,,---,0.00,VWS V14.01,2013-08-25 10:02:00,
2013-08-25 05:03:00,57.0,42.4,25.07,NW,324,0.0,0.0,58,0.00,,---,0.00,VWS V14.01,2013-08-25 10:03:00,
2013-08-25 05:04:00,57.2,42.6,25.07,NW,324,0.0,0.0,58,0.00,,---,0.00,VWS V14.01,2013-08-25 10:04:00,
2013-08-25 05:07:00,57.2,42.6,25.07,NW,324,0.0,0.0,58,0.00,,---,0.00,VWS V14.01,2013-08-25 10:07:00,
2013-08-25 05:09:00,57.2,42.6,25.07,NW,324,0.0,0.0,58,0.00,,---,0.00,VWS V14.01,2013-08-25 10:09:00,
2013-08-25 05:12:00,57.2,42.6,25.07,NW,324,0.0,0.0,58,0.00,,---,0.00,VWS V14.01,2013-08-25 10:12:00,
2013-08-25 05:13:00,57.2,42.6,25.07,NW,324,0.0,0.0,58,0.00,,---,0.00,VWS V14.01,2013-08-25 10:13:00,
2013-08-25 05:14:00,57.2,42.6,25.07,NW,324,0.0,0.0,58,0.00,,---,0.00,VWS V14.01,2013-08-25 10:14:00,
2013-08-25 05:17:00,57.2,42.6,25.07,NW,324,0.0,0.0,58,0.00,,---,0.00,VWS V14.01,2013-08-25 10:17:00,
2013-08-25 05:18:00,57.2,42.6,25.07,NW,324,0.0,0.0,58,0.00,,---,0.00,VWS V14.01,2013-08-25 10:18:00,
2013-08-25 05:19:00,57.2,42.6,25.07,NW,324,0.0,0.0,58,0.00,,---,0.00,VWS V14.01,2013-08-25 10:19:00,
2013-08-25 05:20:00,56.7,42.1,25.07,NW,324,0.0,0.0,58,0.00,,---,0.00,VWS V14.01,2013-08-25 10:20:00,
2013-08-25 05:22:00,56.7,42.1,25.07,NW,324,0.0,0.0,58,0.00,,---,0.00,VWS V14.01,2013-08-25 10:22:00,
2013-08-25 05:23:00,56.7,42.1,25.07,NW,324,0.0,0.0,58,0.00,,---,0.00,VWS V14.01,2013-08-25 10:23:00,
2013-08-25 05:24:00,56.5,42.3,25.07,NW,324,0.0,0.0,59,0.00,,---,0.00,VWS V14.01,2013-08-25 10:24:00,
2013-08-25 05:25:00,56.5,42.3,25.07,NW,324,0.0,0.0,59,0.00,,---,0.00,VWS V14.01,2013-08-25 10:25:00,
2013-08-25 05:27:00,56.5,42.3,25.07,NW,324,0.0,0.0,59,0.00,,---,0.00,VWS V14.01,2013-08-25 10:27:00,
2013-08-25 05:28:00,56.5,42.3,25.07,NW,324,0.0,0.0,59,0.00,,---,0.00,VWS V14.01,2013-08-25 10:28:00,
2013-08-25 05:29:00,56.5,42.3,25.07,NW,324,0.0,0.0,59,0.00,,---,0.00,VWS V14.01,2013-08-25 10:29:00,
2013-08-25 05:30:00,56.5,42.3,25.07,NW,324,0.0,0.0,59,0.00,,---,0.00,VWS V14.01,2013-08-25 10:30:00,
2013-08-25 05:32:00,56.5,42.3,25.07,NW,324,0.0,0.0,59,0.00,,---,0.00,VWS V14.01,2013-08-25 10:32:00,
2013-08-25 05:33:00,56.5,42.3,25.07,NW,324,0.0,0.0,59,0.00,,---,0.00,VWS V14.01,2013-08-25 10:33:00,
2013-08-25 05:34:00,56.5,42.3,25.07,NW,324,0.0,0.0,59,0.00,,---,0.00,VWS V14.01,2013-08-25 10:34:00,
2013-08-25 05:35:00,56.5,42.3,25.07,NW,324,0.0,0.0,59,0.00,,---,0.00,VWS V14.01,2013-08-25 10:35:00,
2013-08-25 05:38:00,56.5,42.3,25.07,NW,324,0.0,0.0,59,0.00,,---,0.00,VWS V14.01,2013-08-25 10:38:00,
2013-08-25 05:39:00,56.3,42.6,25.07,NW,324,0.0,0.0,60,0.00,,---,0.00,VWS V14.01,2013-08-25 10:39:00,
2013-08-25 05:40:00,56.3,42.6,25.07,NW,324,0.0,0.0,60,0.00,,---,0.00,VWS V14.01,2013-08-25 10:40:00,
2013-08-25 05:43:00,56.3,42.6,25.07,NW,324,0.0,0.0,60,0.00,,---,0.00,VWS V14.01,2013-08-25 10:43:00,
2013-08-25 05:44:00,56.3,42.6,25.07,NW,324,0.0,0.0,60,0.00,,---,0.00,VWS V14.01,2013-08-25 10:44:00,
2013-08-25 05:45:00,56.3,42.6,25.07,NW,324,0.0,0.0,60,0.00,,---,0.00,VWS V14.01,2013-08-25 10:45:00,
2013-08-25 05:48:00,56.3,42.6,25.07,NW,324,0.0,0.0,60,0.00,,---,0.00,VWS V14.01,2013-08-25 10:48:00,
2013-08-25 05:49:00,56.3,42.6,25.07,NW,324,0.0,0.0,60,0.00,,---,0.00,VWS V14.01,2013-08-25 10:49:00,
2013-08-25 05:51:00,56.3,42.6,25.07,NW,324,0.0,0.0,60,0.00,,---,0.00,VWS V14.01,2013-08-25 10:51:00,
2013-08-25 05:53:00,56.3,43.0,25.07,NW,324,0.0,0.0,61,0.00,,---,0.00,VWS V14.01,2013-08-25 10:53:00,
2013-08-25 05:54:00,56.3,43.0,25.07,NW,324,0.0,0.0,61,0.00,,---,0.00,VWS V14.01,2013-08-25 10:54:00,
2013-08-25 05:55:00,56.3,43.0,25.07,NW,324,0.0,0.0,61,0.00,,---,0.00,VWS V14.01,2013-08-25 10:55:00,
2013-08-25 05:56:00,56.5,43.2,25.07,NW,324,0.0,0.0,61,0.00,,---,0.00,VWS V14.01,2013-08-25 10:56:00,
2013-08-25 05:58:00,56.5,43.2,25.07,NW,324,0.0,0.0,61,0.00,,---,0.00,VWS V14.01,2013-08-25 10:58:00,
2013-08-25 05:59:00,56.5,43.2,25.07,NW,324,0.0,0.0,61,0.00,,---,0.00,VWS V14.01,2013-08-25 10:59:00,
2013-08-25 06:00:00,56.5,43.2,25.07,NW,324,0.0,0.0,61,0.00,,---,0.00,VWS V14.01,2013-08-25 11:00:00,
2013-08-25 06:01:00,56.3,43.0,25.07,NW,324,0.0,0.0,61,0.00,,---,0.00,VWS V14.01,2013-08-25 11:01:00,
2013-08-25 06:03:00,56.3,43.0,25.07,NW,324,0.0,0.0,61,0.00,,---,0.00,VWS V14.01,2013-08-25 11:03:00,
2013-08-25 06:04:00,56.3,43.0,25.07,NW,324,0.0,0.0,61,0.00,,---,0.00,VWS V14.01,2013-08-25 11:04:00,
2013-08-25 06:05:00,56.3,43.0,25.07,NW,324,0.0,0.0,61,0.00,,---,0.00,VWS V14.01,2013-08-25 11:05:00,
2013-08-25 06:06:00,56.3,43.0,25.07,NW,324,0.0,0.0,61,0.00,,---,0.00,VWS V14.01,2013-08-25 11:06:00,
2013-08-25 06:09:00,56.1,42.9,25.07,NW,324,0.0,0.0,61,0.00,,---,0.00,VWS V14.01,2013-08-25 11:09:00,
2013-08-25 06:10:00,56.1,42.9,25.07,NW,324,0.0,0.0,61,0.00,,---,0.00,VWS V14.01,2013-08-25 11:10:00,
2013-08-25 06:12:00,56.1,43.3,25.07,NW,324,0.0,0.0,62,0.00,,---,0.00,VWS V14.01,2013-08-25 11:12:00,
2013-08-25 06:14:00,56.1,43.3,25.07,NW,324,0.0,0.0,62,0.00,,---,0.00,VWS V14.01,2013-08-25 11:14:00,
2013-08-25 06:15:00,56.1,43.3,25.07,NW,324,0.0,0.0,62,0.00,,---,0.00,VWS V14.01,2013-08-25 11:15:00,
2013-08-25 06:17:00,56.1,43.3,25.07,NW,324,0.0,0.0,62,0.00,,---,0.00,VWS V14.01,2013-08-25 11:17:00,
2013-08-25 06:20:00,56.1,43.3,25.07,NW,324,0.0,0.0,62,0.00,,---,0.00,VWS V14.01,2013-08-25 11:20:00,
2013-08-25 06:22:00,56.7,44.6,25.07,NW,324,3.6,3.6,64,0.00,,---,0.00,VWS V14.01,2013-08-25 11:22:00,
2013-08-25 06:25:00,56.7,44.6,25.07,NW,324,4.5,4.5,64,0.00,,---,0.00,VWS V14.01,2013-08-25 11:25:00,
2013-08-25 06:28:00,56.7,44.6,25.07,NW,324,0.0,0.0,64,0.00,,---,0.00,VWS V14.01,2013-08-25 11:28:00,
2013-08-25 06:30:00,56.7,44.6,25.07,NW,324,0.0,0.0,64,0.00,,---,0.00,VWS V14.01,2013-08-25 11:30:00,
2013-08-25 06:33:00,56.5,43.6,25.07,NW,324,0.0,0.0,62,0.00,,---,0.00,VWS V14.01,2013-08-25 11:33:00,
2013-08-25 06:35:00,56.5,43.6,25.07,NW,324,0.0,0.0,62,0.00,,---,0.00,VWS V14.01,2013-08-25 11:35:00,
2013-08-25 06:36:00,56.5,43.6,25.07,NW,324,0.0,0.0,62,0.00,,---,0.00,VWS V14.01,2013-08-25 11:36:00,
2013-08-25 06:38:00,56.3,43.9,25.07,NW,324,0.0,0.0,63,0.00,,---,0.00,VWS V14.01,2013-08-25 11:38:00,
2013-08-25 06:40:00,56.3,43.9,25.07,NW,324,0.0,0.0,63,0.00,,---,0.00,VWS V14.01,2013-08-25 11:40:00,
2013-08-25 06:41:00,56.3,43.9,25.07,NW,324,0.0,0.0,63,0.00,,---,0.00,VWS V14.01,2013-08-25 11:41:00,
2013-08-25 06:43:00,56.1,43.7,25.07,NW,324,0.0,0.0,63,0.00,,---,0.00,VWS V14.01,2013-08-25 11:43:00,
2013-08-25 06:45:00,56.1,43.7,25.07,NW,324,0.0,0.0,63,0.00,,---,0.00,VWS V14.01,2013-08-25 11:45:00,
2013-08-25 06:46:00,56.1,43.7,25.07,NW,324,0.0,0.0,63,0.00,,---,0.00,VWS V14.01,2013-08-25 11:46:00,
2013-08-25 06:48:00,55.9,43.5,25.07,NW,324,0.0,0.0,63,0.00,,---,0.00,VWS V14.01,2013-08-25 11:48:00,
2013-08-25 06:50:00,55.9,43.5,25.07,NW,324,0.0,0.0,63,0.00,,---,0.00,VWS V14.01,2013-08-25 11:50:00,
2013-08-25 06:51:00,55.9,43.5,25.07,NW,324,0.0,0.0,63,0.00,,---,0.00,VWS V14.01,2013-08-25 11:51:00,
2013-08-25 06:52:00,55.9,43.5,25.07,NW,324,0.0,0.0,63,0.00,,---,0.00,VWS V14.01,2013-08-25 11:52:00,
2013-08-25 06:53:00,55.9,43.5,25.07,NW,324,0.0,0.0,63,0.00,,---,0.00,VWS V14.01,2013-08-25 11:53:00,
2013-08-25 06:55:00,55.9,43.5,25.07,NW,324,0.0,0.0,63,0.00,,---,0.00,VWS V14.01,2013-08-25 11:55:00,
2013-08-25 06:56:00,55.9,43.5,25.07,NW,324,0.0,0.0,63,0.00,,---,0.00,VWS V14.01,2013-08-25 11:56:00,
2013-08-25 06:57:00,55.8,43.4,25.07,NW,324,0.0,0.0,63,0.00,,---,0.00,VWS V14.01,2013-08-25 11:57:00,
2013-08-25 06:59:00,55.8,43.4,25.07,NW,324,0.0,0.0,63,0.00,,---,0.00,VWS V14.01,2013-08-25 11:59:00,
2013-08-25 07:00:00,55.8,43.4,25.07,NW,324,0.0,0.0,63,0.00,,---,0.00,VWS V14.01,2013-08-25 12:00:00,
2013-08-25 07:01:00,55.8,43.8,25.07,NW,324,0.0,0.0,64,0.00,,---,0.00,VWS V14.01,2013-08-25 12:01:00,
2013-08-25 07:02:00,55.8,43.8,25.07,NW,324,0.0,0.0,64,0.00,,---,0.00,VWS V14.01,2013-08-25 12:02:00,
2013-08-25 07:04:00,55.8,43.8,25.07,NW,324,0.0,0.0,64,0.00,,---,0.00,VWS V14.01,2013-08-25 12:04:00,
2013-08-25 07:05:00,55.9,44.4,25.07,NW,324,0.0,0.0,65,0.00,,---,0.00,VWS V14.01,2013-08-25 12:05:00,
2013-08-25 07:06:00,55.9,44.4,25.07,NW,324,0.0,0.0,65,0.00,,---,0.00,VWS V14.01,2013-08-25 12:06:00,
2013-08-25 07:07:00,55.9,44.4,25.07,NW,324,0.0,0.0,65,0.00,,---,0.00,VWS V14.01,2013-08-25 12:07:00,
2013-08-25 07:09:00,55.9,44.4,25.07,NW,325,0.0,0.0,65,0.00,,---,0.00,VWS V14.01,2013-08-25 12:09:00,
2013-08-25 07:10:00,55.9,44.4,25.07,NW,325,0.0,0.0,65,0.00,,---,0.00,VWS V14.01,2013-08-25 12:10:00,
2013-08-25 07:12:00,55.9,44.4,25.07,NW,325,0.0,0.0,65,0.00,,---,0.00,VWS V14.01,2013-08-25 12:12:00,
2013-08-25 07:14:00,55.9,44.0,25.07,NW,325,3.1,3.1,64,0.00,,---,0.00,VWS V14.01,2013-08-25 12:14:00,
2013-08-25 07:16:00,55.9,44.0,25.07,NW,325,3.1,3.1,64,0.00,,---,0.00,VWS V14.01,2013-08-25 12:16:00,
2013-08-25 07:17:00,55.9,44.0,25.07,NW,325,3.1,3.1,64,0.00,,---,0.00,VWS V14.01,2013-08-25 12:17:00,
2013-08-25 07:19:00,55.9,44.0,25.07,NW,325,0.0,0.0,64,0.00,,---,0.00,VWS V14.01,2013-08-25 12:19:00,
2013-08-25 07:21:00,55.9,44.0,25.07,NW,325,0.0,0.0,64,0.00,,---,0.00,VWS V14.01,2013-08-25 12:21:00,
2013-08-25 07:22:00,55.8,44.2,25.07,NW,325,0.0,0.0,65,0.00,,---,0.00,VWS V14.01,2013-08-25 12:22:00,
2013-08-25 07:24:00,55.8,44.2,25.07,NW,325,0.0,0.0,65,0.00,,---,0.00,VWS V14.01,2013-08-25 12:24:00,
2013-08-25 07:26:00,55.8,44.2,25.07,NW,325,0.0,0.0,65,0.00,,---,0.00,VWS V14.01,2013-08-25 12:26:00,
2013-08-25 07:27:00,55.8,44.2,25.07,NW,325,0.0,0.0,65,0.00,,---,0.00,VWS V14.01,2013-08-25 12:27:00,
2013-08-25 07:28:00,55.8,44.2,25.07,NW,325,0.0,0.0,65,0.00,,---,0.00,VWS V14.01,2013-08-25 12:28:00,
2013-08-25 07:30:00,55.8,44.2,25.07,NW,325,0.0,0.0,65,0.00,,---,0.00,VWS V14.01,2013-08-25 12:30:00,
2013-08-25 07:31:00,55.6,44.0,25.07,NW,325,0.0,0.0,65,0.00,,---,0.00,VWS V14.01,2013-08-25 12:31:00,
2013-08-25 07:32:00,55.4,43.8,25.07,NW,325,0.0,0.0,65,0.00,,---,0.00,VWS V14.01,2013-08-25 12:32:00,
2013-08-25 07:33:00,55.4,43.8,25.07,NW,325,0.0,0.0,65,0.00,,---,0.00,VWS V14.01,2013-08-25 12:33:00,
2013-08-25 07:35:00,55.4,43.8,25.07,NW,325,0.0,0.0,65,0.00,,---,0.00,VWS V14.01,2013-08-25 12:35:00,
2013-08-25 07:36:00,55.4,43.8,25.07,NW,325,0.0,0.0,65,0.00,,---,0.00,VWS V14.01,2013-08-25 12:36:00,
2013-08-25 07:37:00,55.4,43.8,25.07,NW,325,0.0,0.0,65,0.00,,---,0.00,VWS V14.01,2013-08-25 12:37:00,
2013-08-25 07:38:00,55.4,43.8,25.07,NW,325,0.0,0.0,65,0.00,,---,0.00,VWS V14.01,2013-08-25 12:38:00,
2013-08-25 07:40:00,55.4,44.2,25.07,NW,325,0.0,0.0,66,0.00,,---,0.00,VWS V14.01,2013-08-25 12:40:00,
2013-08-25 07:41:00,55.4,44.2,25.07,NW,325,0.0,0.0,66,0.00,,---,0.00,VWS V14.01,2013-08-25 12:41:00,
2013-08-25 07:42:00,55.4,44.2,25.07,NW,325,0.0,0.0,66,0.00,,---,0.00,VWS V14.01,2013-08-25 12:42:00,
2013-08-25 07:43:00,55.4,44.2,25.07,NW,325,0.0,0.0,66,0.00,,---,0.00,VWS V14.01,2013-08-25 12:43:00,
2013-08-25 07:53:00,55.8,44.6,25.07,NW,325,0.0,0.0,66,0.00,,---,0.00,VWS V14.01,2013-08-25 12:53:00,
2013-08-25 07:54:00,55.8,44.6,25.07,NW,325,2.7,2.7,66,0.00,,---,0.00,VWS V14.01,2013-08-25 12:54:00,
2013-08-25 07:58:00,56.5,46.5,25.07,NW,325,2.7,2.7,69,0.00,,---,0.00,VWS V14.01,2013-08-25 12:58:00,
2013-08-25 07:59:00,56.5,46.5,25.07,NW,325,2.7,2.7,69,0.00,,---,0.00,VWS V14.01,2013-08-25 12:59:00,
2013-08-25 08:00:00,56.5,46.5,25.07,NW,325,3.1,3.1,69,0.00,,---,0.00,VWS V14.01,2013-08-25 13:00:00,
2013-08-25 08:04:00,56.5,46.5,25.07,NW,325,2.2,2.7,69,0.00,,---,0.00,VWS V14.01,2013-08-25 13:04:00,
2013-08-25 08:05:00,57.6,47.5,25.07,NW,325,2.2,2.2,69,0.00,,---,0.00,VWS V14.01,2013-08-25 13:05:00,
2013-08-25 08:09:00,57.7,47.7,25.07,NW,325,0.0,0.0,69,0.00,,---,0.00,VWS V14.01,2013-08-25 13:09:00,
2013-08-25 08:10:00,57.7,47.7,25.07,NW,325,0.0,0.0,69,0.00,,---,0.00,VWS V14.01,2013-08-25 13:10:00,
2013-08-25 08:11:00,57.7,47.7,25.07,NW,325,0.0,0.0,69,0.00,,---,0.00,VWS V14.01,2013-08-25 13:11:00,
2013-08-25 08:14:00,59.4,49.6,25.07,NW,325,0.0,0.0,70,0.00,,---,0.00,VWS V14.01,2013-08-25 13:14:00,
2013-08-25 08:15:00,59.4,49.6,25.07,NW,325,0.0,0.0,70,0.00,,---,0.00,VWS V14.01,2013-08-25 13:15:00,
2013-08-25 08:17:00,59.4,49.6,25.07,NW,325,0.0,0.0,70,0.00,,---,0.00,VWS V14.01,2013-08-25 13:17:00,
2013-08-25 08:19:00,59.4,49.6,25.07,NW,325,3.6,3.6,70,0.00,,---,0.00,VWS V14.01,2013-08-25 13:19:00,
2013-08-25 08:20:00,59.4,49.6,25.07,NW,325,3.6,3.6,70,0.00,,---,0.00,VWS V14.01,2013-08-25 13:20:00,
2013-08-25 08:21:00,59.4,49.6,25.07,NW,325,2.7,2.7,70,0.00,,---,0.00,VWS V14.01,2013-08-25 13:21:00,
2013-08-25 08:22:00,59.4,49.6,25.07,NW,325,2.7,2.7,70,0.00,,---,0.00,VWS V14.01,2013-08-25 13:22:00,
2013-08-25 08:24:00,60.8,51.0,25.07,NW,325,3.6,3.6,70,0.00,,---,0.00,VWS V14.01,2013-08-25 13:24:00,
2013-08-25 08:25:00,60.8,51.0,25.07,NW,325,3.6,3.6,70,0.00,,---,0.00,VWS V14.01,2013-08-25 13:25:00,
2013-08-25 08:26:00,60.8,51.0,25.07,NW,325,3.6,3.6,70,0.00,,---,0.00,VWS V14.01,2013-08-25 13:26:00,
2013-08-25 08:27:00,60.8,51.0,25.07,NW,325,3.6,3.6,70,0.00,,---,0.00,VWS V14.01,2013-08-25 13:27:00,
2013-08-25 08:29:00,61.9,52.0,25.07,NW,325,4.0,4.0,70,0.00,,---,0.00,VWS V14.01,2013-08-25 13:29:00,
2013-08-25 08:30:00,61.9,52.0,25.07,NW,325,3.6,4.0,70,0.00,,---,0.00,VWS V14.01,2013-08-25 13:30:00,
2013-08-25 08:31:00,61.9,52.0,25.07,NW,325,3.6,4.0,70,0.00,,---,0.00,VWS V14.01,2013-08-25 13:31:00,
2013-08-25 08:32:00,62.2,52.0,25.07,NW,325,3.6,3.6,69,0.00,,---,0.00,VWS V14.01,2013-08-25 13:32:00,
2013-08-25 08:34:00,62.2,52.0,25.07,NW,325,2.2,3.6,69,0.00,,---,0.00,VWS V14.01,2013-08-25 13:34:00,
2013-08-25 08:35:00,63.0,52.6,25.07,NW,325,2.7,2.7,69,0.00,,---,0.00,VWS V14.01,2013-08-25 13:35:00,
2013-08-25 08:36:00,63.1,52.8,25.07,NW,325,2.7,2.7,69,0.00,,---,0.00,VWS V14.01,2013-08-25 13:36:00,
2013-08-25 08:37:00,63.1,52.8,25.07,NW,325,2.7,2.7,69,0.00,,---,0.00,VWS V14.01,2013-08-25 13:37:00,
2013-08-25 08:39:00,63.1,52.8,25.07,NW,325,3.6,3.6,69,0.00,,---,0.00,VWS V14.01,2013-08-25 13:39:00,
2013-08-25 08:41:00,63.1,52.8,25.07,NW,325,3.6,3.6,69,0.00,,---,0.00,VWS V14.01,2013-08-25 13:41:00,
2013-08-25 08:42:00,64.8,54.0,25.07,NW,325,3.6,3.6,68,0.00,,---,0.00,VWS V14.01,2013-08-25 13:42:00,
2013-08-25 08:45:00,64.8,54.0,25.07,NW,325,0.0,0.0,68,0.00,,---,0.00,VWS V14.01,2013-08-25 13:45:00,
2013-08-25 08:46:00,64.8,54.0,25.07,NW,325,0.0,0.0,68,0.00,,---,0.00,VWS V14.01,2013-08-25 13:46:00,
2013-08-25 08:47:00,64.8,54.0,25.07,NW,325,0.0,0.0,68,0.00,,---,0.00,VWS V14.01,2013-08-25 13:47:00,
2013-08-25 08:48:00,64.8,54.0,25.07,NW,325,0.0,0.0,68,0.00,,---,0.00,VWS V14.01,2013-08-25 13:48:00,
2013-08-25 08:50:00,66.2,54.1,25.07,NW,325,0.0,0.0,65,0.00,,---,0.00,VWS V14.01,2013-08-25 13:50:00,
2013-08-25 08:51:00,66.2,54.1,25.07,NW,325,0.0,0.0,65,0.00,,---,0.00,VWS V14.01,2013-08-25 13:51:00,
2013-08-25 08:52:00,66.2,54.1,25.07,West,269,0.0,0.0,65,0.00,,---,0.00,VWS V14.01,2013-08-25 13:52:00,
2013-08-25 08:53:00,66.2,54.1,25.07,West,269,0.0,0.0,65,0.00,,---,0.00,VWS V14.01,2013-08-25 13:53:00,
2013-08-25 08:55:00,66.2,54.1,25.07,WSW,244,0.0,0.0,65,0.00,,---,0.00,VWS V14.01,2013-08-25 13:55:00,
2013-08-25 08:56:00,66.2,54.1,25.07,WSW,244,0.0,0.0,65,0.00,,---,0.00,VWS V14.01,2013-08-25 13:56:00,
2013-08-25 08:57:00,66.2,54.1,25.07,WSW,244,0.0,0.0,65,0.00,,---,0.00,VWS V14.01,2013-08-25 13:57:00,
2013-08-25 08:58:00,66.2,54.1,25.07,WSW,244,0.0,0.0,65,0.00,,---,0.00,VWS V14.01,2013-08-25 13:58:00,
2013-08-25 09:00:00,67.5,50.8,25.10,WSW,244,0.0,0.0,55,0.00,,---,0.00,VWS V14.01,2013-08-25 14:00:00,
2013-08-25 09:01:00,67.5,50.8,25.10,WSW,244,0.0,0.0,55,0.00,,---,0.00,VWS V14.01,2013-08-25 14:01:00,
2013-08-25 09:02:00,67.5,50.8,25.10,WSW,244,0.0,0.0,55,0.00,,---,0.00,VWS V14.01,2013-08-25 14:02:00,
2013-08-25 09:03:00,67.5,50.8,25.10,WSW,244,0.0,0.0,55,0.00,,---,0.00,VWS V14.01,2013-08-25 14:03:00,
2013-08-25 09:05:00,67.5,50.8,25.10,West,262,0.0,0.0,55,0.00,,---,0.00,VWS V14.01,2013-08-25 14:05:00,
2013-08-25 09:07:00,67.5,50.8,25.10,West,262,0.0,0.0,55,0.00,,---,0.00,VWS V14.01,2013-08-25 14:07:00,
2013-08-25 09:08:00,67.5,50.8,25.10,West,262,0.0,0.0,55,0.00,,---,0.00,VWS V14.01,2013-08-25 14:08:00,
2013-08-25 09:10:00,67.5,50.8,25.10,West,262,0.0,0.0,55,0.00,,---,0.00,VWS V14.01,2013-08-25 14:10:00,
2013-08-25 09:12:00,67.5,50.8,25.10,West,262,0.0,0.0,55,0.00,,---,0.00,VWS V14.01,2013-08-25 14:12:00,
2013-08-25 09:13:00,67.5,50.8,25.10,West,262,0.0,0.0,55,0.00,,---,0.00,VWS V14.01,2013-08-25 14:13:00,
2013-08-25 09:15:00,70.9,47.3,25.10,West,262,0.0,0.0,43,0.00,,---,0.00,VWS V14.01,2013-08-25 14:15:00,
2013-08-25 09:18:00,70.9,47.3,25.10,West,262,0.0,0.0,43,0.00,,---,0.00,VWS V14.01,2013-08-25 14:18:00,
2013-08-25 09:20:00,70.9,47.3,25.10,West,262,0.0,0.0,43,0.00,,---,0.00,VWS V14.01,2013-08-25 14:20:00,
2013-08-25 09:23:00,72.7,44.2,25.10,West,262,0.0,0.0,36,0.00,,---,0.00,VWS V14.01,2013-08-25 14:23:00,
2013-08-25 09:24:00,72.7,44.2,25.10,West,262,0.0,0.0,36,0.00,,---,0.00,VWS V14.01,2013-08-25 14:24:00,
2013-08-25 09:25:00,72.7,44.2,25.10,West,262,0.0,0.0,36,0.00,,---,0.00,VWS V14.01,2013-08-25 14:25:00,
2013-08-25 09:28:00,72.7,44.2,25.10,West,262,0.0,0.0,36,0.00,,---,0.00,VWS V14.01,2013-08-25 14:28:00,
2013-08-25 09:29:00,72.7,44.2,25.10,West,262,0.0,0.0,36,0.00,,---,0.00,VWS V14.01,2013-08-25 14:29:00,
2013-08-25 09:30:00,72.7,44.2,25.10,West,262,0.0,0.0,36,0.00,,---,0.00,VWS V14.01,2013-08-25 14:30:00,
2013-08-25 09:33:00,73.6,41.1,25.10,West,271,0.0,0.0,31,0.00,,---,0.00,VWS V14.01,2013-08-25 14:33:00,
2013-08-25 09:34:00,73.6,41.1,25.10,West,271,0.0,0.0,31,0.00,,---,0.00,VWS V14.01,2013-08-25 14:34:00,
2013-08-25 09:35:00,73.6,41.1,25.10,West,271,0.0,0.0,31,0.00,,---,0.00,VWS V14.01,2013-08-25 14:35:00,
2013-08-25 09:38:00,73.6,41.1,25.10,West,273,2.7,2.7,31,0.00,,---,0.00,VWS V14.01,2013-08-25 14:38:00,
2013-08-25 09:39:00,73.6,41.1,25.10,West,273,2.7,2.7,31,0.00,,---,0.00,VWS V14.01,2013-08-25 14:39:00,
2013-08-25 09:40:00,73.6,41.1,25.10,West,273,2.7,2.7,31,0.00,,---,0.00,VWS V14.01,2013-08-25 14:40:00,
2013-08-25 09:41:00,73.6,41.1,25.10,West,273,2.7,3.1,31,0.00,,---,0.00,VWS V14.01,2013-08-25 14:41:00,
2013-08-25 09:43:00,73.6,41.1,25.10,West,273,3.6,3.6,31,0.00,,---,0.00,VWS V14.01,2013-08-25 14:43:00,
2013-08-25 09:52:00,75.4,37.2,25.10,SE,134,2.2,2.2,25,0.00,,---,0.00,VWS V14.01,2013-08-25 14:52:00,
2013-08-25 09:53:00,75.4,37.2,25.10,SE,134,2.2,2.2,25,0.00,,---,0.00,VWS V14.01,2013-08-25 14:53:00,
2013-08-25 09:57:00,75.4,37.2,25.10,ESE,122,3.1,3.1,25,0.00,,---,0.00,VWS V14.01,2013-08-25 14:57:00,
2013-08-25 09:58:00,75.4,37.2,25.10,ESE,122,3.1,3.1,25,0.00,,---,0.00,VWS V14.01,2013-08-25 14:58:00,
2013-08-25 10:02:00,75.4,37.2,25.10,SE,142,4.0,4.0,25,0.00,,---,0.00,VWS V14.01,2013-08-25 15:02:00,
2013-08-25 10:03:00,75.4,37.2,25.10,SE,142,4.0,4.0,25,0.00,,---,0.00,VWS V14.01,2013-08-25 15:03:00,
2013-08-25 10:07:00,76.8,35.1,25.10,South,181,5.8,5.8,22,0.00,,---,0.00,VWS V14.01,2013-08-25 15:07:00,
2013-08-25 10:08:00,76.8,35.1,25.10,South,181,5.8,5.8,22,0.00,,---,0.00,VWS V14.01,2013-08-25 15:08:00,
2013-08-25 10:13:00,77.0,35.3,25.10,SSW,199,4.0,5.8,22,0.00,,---,0.00,VWS V14.01,2013-08-25 15:13:00,
2013-08-25 10:18:00,77.0,35.3,25.10,SSW,193,5.4,5.4,22,0.00,,---,0.00,VWS V14.01,2013-08-25 15:18:00,
2013-08-25 10:19:00,77.0,35.3,25.10,SSW,193,5.4,5.4,22,0.00,,---,0.00,VWS V14.01,2013-08-25 15:19:00,
2013-08-25 10:23:00,77.0,35.3,25.10,SE,129,5.8,5.8,22,0.00,,---,0.00,VWS V14.01,2013-08-25 15:23:00,
2013-08-25 10:24:00,77.0,35.3,25.10,South,175,4.0,4.0,22,0.00,,---,0.00,VWS V14.01,2013-08-25 15:24:00,
2013-08-25 10:28:00,77.0,35.3,25.10,SW,223,11.4,11.4,22,0.00,,---,0.00,VWS V14.01,2013-08-25 15:28:00,
2013-08-25 10:29:00,77.4,34.4,25.10,SSE,159,4.9,11.4,21,0.00,,---,0.00,VWS V14.01,2013-08-25 15:29:00,
2013-08-25 10:33:00,77.7,34.7,25.10,SSW,194,7.6,7.6,21,0.00,,---,0.00,VWS V14.01,2013-08-25 15:33:00,
2013-08-25 10:34:00,77.7,34.7,25.10,SSW,213,5.8,7.6,21,0.00,,---,0.00,VWS V14.01,2013-08-25 15:34:00,
2013-08-25 10:35:00,77.7,34.7,25.10,SSW,213,5.8,5.8,21,0.00,,---,0.00,VWS V14.01,2013-08-25 15:35:00,
2013-08-25 10:38:00,77.7,34.7,25.10,South,177,5.4,6.3,21,0.00,,---,0.00,VWS V14.01,2013-08-25 15:38:00,
2013-08-25 10:39:00,77.7,34.7,25.10,South,177,5.4,5.4,21,0.00,,---,0.00,VWS V14.01,2013-08-25 15:39:00,
2013-08-25 10:40:00,77.7,34.7,25.10,South,177,5.4,5.4,21,0.00,,---,0.00,VWS V14.01,2013-08-25 15:40:00,
2013-08-25 10:43:00,77.7,34.7,25.10,South,175,5.4,8.3,21,0.00,,---,0.00,VWS V14.01,2013-08-25 15:43:00,
2013-08-25 10:44:00,77.7,34.7,25.10,South,175,5.4,8.3,21,0.00,,---,0.00,VWS V14.01,2013-08-25 15:44:00,
2013-08-25 10:45:00,77.7,34.7,25.10,SE,139,6.3,6.3,21,0.00,,---,0.00,VWS V14.01,2013-08-25 15:45:00,
2013-08-25 10:49:00,77.2,34.3,25.10,SE,130,10.1,10.1,21,0.00,,---,0.00,VWS V14.01,2013-08-25 15:49:00,
2013-08-25 10:50:00,77.2,34.3,25.10,SE,145,8.3,8.3,21,0.00,,---,0.00,VWS V14.01,2013-08-25 15:50:00,
2013-08-25 10:54:00,77.2,34.3,25.10,SSE,165,8.1,8.1,21,0.00,,---,0.00,VWS V14.01,2013-08-25 15:54:00,
2013-08-25 10:55:00,77.9,34.9,25.13,SSE,165,8.1,8.1,21,0.00,,---,0.00,VWS V14.01,2013-08-25 15:55:00,
2013-08-25 10:56:00,78.1,35.0,25.13,SSW,198,5.8,8.1,21,0.00,,---,0.00,VWS V14.01,2013-08-25 15:56:00,
2013-08-25 10:59:00,78.1,35.0,25.13,South,191,4.0,4.0,21,0.00,,---,0.00,VWS V14.01,2013-08-25 15:59:00,
2013-08-25 11:00:00,78.1,35.0,25.13,SSE,166,8.7,8.7,21,0.00,,---,0.00,VWS V14.01,2013-08-25 16:00:00,
2013-08-25 11:01:00,78.1,35.0,25.13,SSE,166,8.7,8.7,21,0.00,,---,0.00,VWS V14.01,2013-08-25 16:01:00,
2013-08-25 11:04:00,78.1,35.0,25.13,SE,130,8.1,8.1,21,0.00,,---,0.00,VWS V14.01,2013-08-25 16:04:00,
2013-08-25 11:05:00,78.1,35.0,25.13,SSE,167,10.1,10.1,21,0.00,,---,0.00,VWS V14.01,2013-08-25 16:05:00,
2013-08-25 11:06:00,78.1,35.0,25.13,SSE,167,10.1,10.1,21,0.00,,---,0.00,VWS V14.01,2013-08-25 16:06:00,
2013-08-25 11:09:00,78.1,35.0,25.13,South,181,5.4,5.8,21,0.00,,---,0.00,VWS V14.01,2013-08-25 16:09:00,
2013-08-25 11:10:00,78.1,35.0,25.13,SE,144,7.6,7.6,21,0.00,,---,0.00,VWS V14.01,2013-08-25 16:10:00,
2013-08-25 11:11:00,78.1,35.0,25.13,SE,144,7.6,7.6,21,0.00,,---,0.00,VWS V14.01,2013-08-25 16:11:00,
2013-08-25 11:14:00,78.1,35.0,25.13,South,191,6.3,6.3,21,0.00,,---,0.00,VWS V14.01,2013-08-25 16:14:00,
2013-08-25 11:15:00,78.1,35.0,25.13,South,191,6.3,6.3,21,0.00,,---,0.00,VWS V14.01,2013-08-25 16:15:00,
2013-08-25 11:16:00,78.1,35.0,25.13,South,191,6.3,6.3,21,0.00,,---,0.00,VWS V14.01,2013-08-25 16:16:00,
2013-08-25 11:20:00,78.1,35.0,25.13,SW,214,4.0,5.4,21,0.00,,---,0.00,VWS V14.01,2013-08-25 16:20:00,
2013-08-25 11:21:00,78.1,35.0,25.13,SW,223,3.6,4.0,21,0.00,,---,0.00,VWS V14.01,2013-08-25 16:21:00,
2013-08-25 11:25:00,78.1,35.0,25.13,SSW,211,5.8,5.8,21,0.00,,---,0.00,VWS V14.01,2013-08-25 16:25:00,
2013-08-25 11:26:00,78.1,35.0,25.13,SW,226,5.8,5.8,21,0.00,,---,0.00,VWS V14.01,2013-08-25 16:26:00,
2013-08-25 11:27:00,78.8,35.6,25.13,SSW,198,8.7,8.7,21,0.00,,---,0.00,VWS V14.01,2013-08-25 16:27:00,
2013-08-25 11:30:00,78.8,35.6,25.13,SSE,167,11.0,11.0,21,0.00,,---,0.00,VWS V14.01,2013-08-25 16:30:00,
2013-08-25 11:31:00,78.8,35.6,25.13,SSE,163,6.3,6.3,21,0.00,,---,0.00,VWS V14.01,2013-08-25 16:31:00,
2013-08-25 11:32:00,78.8,35.6,25.13,SSW,209,8.3,8.3,21,0.00,,---,0.00,VWS V14.01,2013-08-25 16:32:00,
2013-08-25 11:35:00,78.8,35.6,25.13,South,186,7.6,7.6,21,0.00,,---,0.00,VWS V14.01,2013-08-25 16:35:00,
2013-08-25 11:36:00,78.8,35.6,25.13,South,191,5.4,5.4,21,0.00,,---,0.00,VWS V14.01,2013-08-25 16:36:00,
2013-08-25 11:37:00,78.8,35.6,25.13,SSW,206,5.8,5.8,21,0.00,,---,0.00,VWS V14.01,2013-08-25 16:37:00,
2013-08-25 11:40:00,81.5,36.6,25.13,SSE,147,8.1,8.1,20,0.00,,---,0.00,VWS V14.01,2013-08-25 16:40:00,
2013-08-25 11:41:00,81.5,36.6,25.13,SSE,147,8.1,8.1,20,0.00,,---,0.00,VWS V14.01,2013-08-25 16:41:00,
2013-08-25 11:42:00,81.5,36.6,25.13,South,190,7.6,7.6,20,0.00,,---,0.00,VWS V14.01,2013-08-25 16:42:00,
2013-08-25 11:43:00,82.0,37.0,25.13,South,190,7.6,7.6,20,0.00,,---,0.00,VWS V14.01,2013-08-25 16:43:00,
2013-08-25 11:45:00,81.9,36.9,25.13,SSW,198,7.6,7.6,20,0.00,,---,0.00,VWS V14.01,2013-08-25 16:45:00,
2013-08-25 11:46:00,81.9,36.9,25.13,South,185,10.5,10.5,20,0.00,,---,0.00,VWS V14.01,2013-08-25 16:46:00,
2013-08-25 11:47:00,81.9,36.9,25.13,South,185,10.5,10.5,20,0.00,,---,0.00,VWS V14.01,2013-08-25 16:47:00,
2013-08-25 11:48:00,81.9,36.9,25.13,SSE,150,10.5,10.5,20,0.00,,---,0.00,VWS V14.01,2013-08-25 16:48:00,
2013-08-25 11:51:00,81.9,36.9,25.13,SSE,156,8.7,8.7,20,0.00,,---,0.00,VWS V14.01,2013-08-25 16:51:00,
2013-08-25 11:52:00,81.9,36.9,25.13,SSE,156,8.7,8.7,20,0.00,,---,0.00,VWS V14.01,2013-08-25 16:52:00,
2013-08-25 11:53:00,81.9,36.9,25.13,South,181,6.3,6.3,20,0.00,,---,0.00,VWS V14.01,2013-08-25 16:53:00,
2013-08-25 11:56:00,81.9,36.9,25.13,South,182,5.8,8.1,20,0.00,,---,0.00,VWS V14.01,2013-08-25 16:56:00,
2013-08-25 11:57:00,81.9,36.9,25.13,South,182,5.8,8.1,20,0.00,,---,0.00,VWS V14.01,2013-08-25 16:57:00,
2013-08-25 11:58:00,81.9,36.9,25.13,South,180,11.4,11.4,20,0.00,,---,0.00,VWS V14.01,2013-08-25 16:58:00,
2013-08-25 12:02:00,81.9,36.9,25.13,SSE,149,10.5,10.5,20,0.00,,---,0.00,VWS V14.01,2013-08-25 17:02:00,
2013-08-25 12:03:00,81.9,36.9,25.13,ESE,123,10.1,10.5,20,0.00,,---,0.00,VWS V14.01,2013-08-25 17:03:00,
2013-08-25 12:05:00,81.9,36.9,25.13,SE,130,8.1,8.1,20,0.00,,---,0.00,VWS V14.01,2013-08-25 17:05:00,
2013-08-25 12:07:00,82.4,36.0,25.13,SSW,207,8.7,8.7,19,0.00,,---,0.00,VWS V14.01,2013-08-25 17:07:00,
2013-08-25 12:08:00,82.4,36.0,25.13,SSW,198,6.3,6.3,19,0.00,,---,0.00,VWS V14.01,2013-08-25 17:08:00,
2013-08-25 12:10:00,82.4,36.0,25.13,SSW,209,7.6,7.6,19,0.00,,---,0.00,VWS V14.01,2013-08-25 17:10:00,
2013-08-25 12:12:00,82.4,36.0,25.13,SSE,157,5.8,5.8,19,0.00,,---,0.00,VWS V14.01,2013-08-25 17:12:00,
2013-08-25 12:13:00,82.4,36.0,25.13,SSE,157,5.8,5.8,19,0.00,,---,0.00,VWS V14.01,2013-08-25 17:13:00,
2013-08-25 12:15:00,82.4,36.0,25.13,South,172,3.6,3.6,19,0.00,,---,0.00,VWS V14.01,2013-08-25 17:15:00,
2013-08-25 12:17:00,82.4,36.0,25.13,WSW,244,10.5,10.5,19,0.00,,---,0.00,VWS V14.01,2013-08-25 17:17:00,
2013-08-25 12:18:00,82.4,36.0,25.13,South,190,6.3,10.5,19,0.00,,---,0.00,VWS V14.01,2013-08-25 17:18:00,
2013-08-25 12:20:00,82.4,36.0,25.13,South,171,8.7,8.7,19,0.00,,---,0.00,VWS V14.01,2013-08-25 17:20:00,
2013-08-25 12:23:00,82.4,36.0,25.13,SSW,192,5.4,5.4,19,0.00,,---,0.00,VWS V14.01,2013-08-25 17:23:00,
2013-08-25 12:25:00,81.9,35.6,25.13,South,185,10.1,10.1,19,0.00,,---,0.00,VWS V14.01,2013-08-25 17:25:00,
2013-08-25 12:28:00,81.9,35.6,25.13,SSW,192,7.6,7.6,19,0.00,,---,0.00,VWS V14.01,2013-08-25 17:28:00,
2013-08-25 12:29:00,81.9,35.6,25.13,South,181,10.5,10.5,19,0.00,,---,0.00,VWS V14.01,2013-08-25 17:29:00,
2013-08-25 12:31:00,81.7,35.5,25.13,SE,125,8.3,8.3,19,0.00,,---,0.00,VWS V14.01,2013-08-25 17:31:00,
2013-08-25 12:33:00,81.7,35.5,25.13,SE,125,8.3,8.3,19,0.00,,---,0.00,VWS V14.01,2013-08-25 17:33:00,
2013-08-25 12:34:00,81.7,35.5,25.13,ESE,120,5.4,8.3,19,0.00,,---,0.00,VWS V14.01,2013-08-25 17:34:00,
2013-08-25 12:36:00,82.0,35.8,25.13,SSE,162,10.5,10.5,19,0.00,,---,0.00,VWS V14.01,2013-08-25 17:36:00,
2013-08-25 12:38:00,82.0,35.8,25.13,SE,130,6.7,6.7,19,0.00,,---,0.00,VWS V14.01,2013-08-25 17:38:00,
2013-08-25 12:39:00,82.0,35.8,25.13,SE,133,10.5,10.5,19,0.00,,---,0.00,VWS V14.01,2013-08-25 17:39:00,
2013-08-25 12:41:00,82.0,35.8,25.13,SSE,157,5.4,5.4,19,0.00,,---,0.00,VWS V14.01,2013-08-25 17:41:00,
2013-08-25 12:43:00,83.3,36.8,25.13,SSW,209,3.6,3.6,19,0.00,,---,0.00,VWS V14.01,2013-08-25 17:43:00,
2013-08-25 12:44:00,83.3,36.8,25.13,SSW,209,3.6,3.6,19,0.00,,---,0.00,VWS V14.01,2013-08-25 17:44:00,
2013-08-25 12:46:00,83.3,36.8,25.13,South,173,5.4,5.8,19,0.00,,---,0.00,VWS V14.01,2013-08-25 17:46:00,
2013-08-25 12:48:00,83.3,36.8,25.13,SSW,195,4.0,4.0,19,0.00,,---,0.00,VWS V14.01,2013-08-25 17:48:00,
2013-08-25 12:49:00,83.3,36.8,25.13,SSW,195,4.0,4.0,19,0.00,,---,0.00,VWS V14.01,2013-08-25 17:49:00,
2013-08-25 12:50:00,83.3,36.8,25.13,SSW,195,4.0,4.0,19,0.00,,---,0.00,VWS V14.01,2013-08-25 17:50:00,
2013-08-25 12:51:00,82.4,36.0,25.13,SSW,195,4.0,4.0,19,0.00,,---,0.00,VWS V14.01,2013-08-25 17:51:00,
2013-08-25 12:53:00,82.8,36.3,25.13,SSW,195,4.0,4.0,19,0.00,,---,0.00,VWS V14.01,2013-08-25 17:53:00,
2013-08-25 12:54:00,82.8,36.3,25.13,SSW,195,4.0,4.0,19,0.00,,---,0.00,VWS V14.01,2013-08-25 17:54:00,
2013-08-25 12:55:00,82.8,36.3,25.13,South,188,8.1,8.1,19,0.00,,---,0.00,VWS V14.01,2013-08-25 17:55:00,
2013-08-25 12:56:00,82.8,36.3,25.13,South,188,8.1,8.1,19,0.00,,---,0.00,VWS V14.01,2013-08-25 17:56:00,
2013-08-25 12:58:00,82.8,36.3,25.13,SE,124,11.0,11.0,19,0.00,,---,0.00,VWS V14.01,2013-08-25 17:58:00,
2013-08-25 13:00:00,82.8,36.3,25.13,SE,124,11.0,11.0,19,0.00,,---,0.00,VWS V14.01,2013-08-25 18:00:00,
2013-08-25 13:01:00,81.9,35.6,25.13,SE,124,11.0,11.0,19,0.00,,---,0.00,VWS V14.01,2013-08-25 18:01:00,
2013-08-25 13:04:00,81.9,35.6,25.13,SE,124,11.0,11.0,19,0.00,,---,0.00,VWS V14.01,2013-08-25 18:04:00,
2013-08-25 13:05:00,81.9,35.6,25.13,SE,124,11.0,11.0,19,0.00,,---,0.00,VWS V14.01,2013-08-25 18:05:00,
2013-08-25 13:06:00,81.9,35.6,25.13,SE,124,11.0,11.0,19,0.00,,---,0.00,VWS V14.01,2013-08-25 18:06:00,
2013-08-25 13:09:00,80.1,35.4,25.13,SE,124,11.0,11.0,20,0.00,,---,0.00,VWS V14.01,2013-08-25 18:09:00,
2013-08-25 13:10:00,80.1,35.4,25.13,SE,124,11.0,11.0,20,0.00,,---,0.00,VWS V14.01,2013-08-25 18:10:00,
2013-08-25 13:11:00,80.1,35.4,25.13,SE,124,11.0,11.0,20,0.00,,---,0.00,VWS V14.01,2013-08-25 18:11:00,
2013-08-25 13:14:00,80.1,35.4,25.13,SE,124,11.0,11.0,20,0.00,,---,0.00,VWS V14.01,2013-08-25 18:14:00,
2013-08-25 13:15:00,80.1,35.4,25.13,SE,124,11.0,11.0,20,0.00,,---,0.00,VWS V14.01,2013-08-25 18:15:00,
2013-08-25 13:16:00,81.5,35.3,25.13,SE,124,11.0,11.0,19,0.00,,---,0.00,VWS V14.01,2013-08-25 18:16:00,
2013-08-25 13:17:00,81.5,35.3,25.13,SE,124,11.0,11.0,19,0.00,,---,0.00,VWS V14.01,2013-08-25 18:17:00,
2013-08-25 13:19:00,81.3,35.2,25.13,SE,124,11.0,11.0,19,0.00,,---,0.00,VWS V14.01,2013-08-25 18:19:00,
2013-08-25 13:21:00,80.8,34.7,25.13,SE,124,11.0,11.0,19,0.00,,---,0.00,VWS V14.01,2013-08-25 18:21:00,
2013-08-25 13:22:00,80.8,34.7,25.13,SE,124,11.0,11.0,19,0.00,,---,0.00,VWS V14.01,2013-08-25 18:22:00,
2013-08-25 13:24:00,80.4,35.7,25.13,SE,124,11.0,11.0,20,0.00,,---,0.00,VWS V14.01,2013-08-25 18:24:00,
2013-08-25 13:26:00,80.2,35.6,25.13,SE,124,11.0,11.0,20,0.00,,---,0.00,VWS V14.01,2013-08-25 18:26:00,
2013-08-25 13:27:00,80.2,35.6,25.13,SE,124,11.0,11.0,20,0.00,,---,0.00,VWS V14.01,2013-08-25 18:27:00,
2013-08-25 13:29:00,80.2,35.6,25.13,SE,124,11.0,11.0,20,0.00,,---,0.00,VWS V14.01,2013-08-25 18:29:00,
2013-08-25 13:31:00,80.2,35.6,25.13,SE,124,11.0,11.0,20,0.00,,---,0.00,VWS V14.01,2013-08-25 18:31:00,
2013-08-25 13:32:00,80.2,35.6,25.13,SE,124,11.0,11.0,20,0.00,,---,0.00,VWS V14.01,2013-08-25 18:32:00,
2013-08-25 13:35:00,79.7,35.1,25.10,SE,124,11.0,11.0,20,0.00,,---,0.00,VWS V14.01,2013-08-25 18:35:00,
2013-08-25 13:37:00,79.7,35.1,25.10,SE,124,11.0,11.0,20,0.00,,---,0.00,VWS V14.01,2013-08-25 18:37:00,
2013-08-25 13:38:00,79.7,35.1,25.10,SE,124,11.0,11.0,20,0.00,,---,0.00,VWS V14.01,2013-08-25 18:38:00,
2013-08-25 13:39:00,79.7,35.1,25.10,SE,124,11.0,11.0,20,0.00,,---,0.00,VWS V14.01,2013-08-25 18:39:00,
2013-08-25 13:40:00,79.7,35.1,25.10,SE,124,11.0,11.0,20,0.00,,---,0.00,VWS V14.01,2013-08-25 18:40:00,
2013-08-25 13:42:00,79.2,34.7,25.10,SSW,195,4.9,4.9,20,0.00,,---,0.00,VWS V14.01,2013-08-25 18:42:00,
2013-08-25 13:43:00,79.2,34.7,25.10,SSW,195,4.9,4.9,20,0.00,,---,0.00,VWS V14.01,2013-08-25 18:43:00,
2013-08-25 13:44:00,79.5,35.0,25.10,SSW,195,4.9,4.9,20,0.00,,---,0.00,VWS V14.01,2013-08-25 18:44:00,
2013-08-25 13:45:00,79.5,35.0,25.10,SSW,195,4.9,4.9,20,0.00,,---,0.00,VWS V14.01,2013-08-25 18:45:00,
2013-08-25 13:47:00,79.5,35.0,25.10,SSW,195,4.9,4.9,20,0.00,,---,0.00,VWS V14.01,2013-08-25 18:47:00,
2013-08-25 13:48:00,79.5,35.0,25.10,SSW,195,4.9,4.9,20,0.00,,---,0.00,VWS V14.01,2013-08-25 18:48:00,
2013-08-25 13:49:00,79.5,35.0,25.10,SSW,195,4.9,4.9,20,0.00,,---,0.00,VWS V14.01,2013-08-25 18:49:00,
2013-08-25 13:50:00,79.5,35.0,25.10,SSW,195,4.9,4.9,20,0.00,,---,0.00,VWS V14.01,2013-08-25 18:50:00,
2013-08-25 13:52:00,83.8,37.2,25.10,SSW,195,4.9,4.9,19,0.00,,---,0.00,VWS V14.01,2013-08-25 18:52:00,
2013-08-25 13:53:00,83.8,37.2,25.10,SSW,195,4.9,4.9,19,0.00,,---,0.00,VWS V14.01,2013-08-25 18:53:00,
2013-08-25 13:56:00,83.8,37.2,25.10,SSW,195,4.9,4.9,19,0.00,,---,0.00,VWS V14.01,2013-08-25 18:56:00,
2013-08-25 13:57:00,83.8,37.2,25.10,SSW,195,4.9,4.9,19,0.00,,---,0.00,VWS V14.01,2013-08-25 18:57:00,
2013-08-25 13:58:00,83.8,37.2,25.10,SSW,195,4.9,4.9,19,0.00,,---,0.00,VWS V14.01,2013-08-25 18:58:00,
2013-08-25 13:59:00,83.8,37.2,25.10,SSW,195,4.9,4.9,19,0.00,,---,0.00,VWS V14.01,2013-08-25 18:59:00,
2013-08-25 14:01:00,83.8,32.9,25.10,SSW,195,4.9,4.9,16,0.00,,---,0.00,VWS V14.01,2013-08-25 19:01:00,
2013-08-25 14:02:00,83.8,32.9,25.10,SSW,195,4.9,4.9,16,0.00,,---,0.00,VWS V14.01,2013-08-25 19:02:00,
2013-08-25 14:03:00,84.2,33.2,25.10,SSW,195,4.9,4.9,16,0.00,,---,0.00,VWS V14.01,2013-08-25 19:03:00,
2013-08-25 14:04:00,84.2,33.2,25.10,SSW,195,4.9,4.9,16,0.00,,---,0.00,VWS V14.01,2013-08-25 19:04:00,
2013-08-25 14:06:00,84.2,33.2,25.10,ESE,123,5.4,5.4,16,0.00,,---,0.00,VWS V14.01,2013-08-25 19:06:00,
2013-08-25 14:07:00,84.9,33.8,25.10,ESE,123,5.4,5.4,16,0.00,,---,0.00,VWS V14.01,2013-08-25 19:07:00,
2013-08-25 14:08:00,84.9,33.8,25.10,ESE,123,5.4,5.4,16,0.00,,---,0.00,VWS V14.01,2013-08-25 19:08:00,
2013-08-25 14:09:00,85.1,33.9,25.10,ESE,123,5.4,5.4,16,0.00,,---,0.00,VWS V14.01,2013-08-25 19:09:00,
2013-08-25 14:11:00,85.1,33.9,25.10,ESE,123,5.4,5.4,16,0.00,,---,0.00,VWS V14.01,2013-08-25 19:11:00,
2013-08-25 14:13:00,85.1,33.9,25.10,ESE,123,5.4,5.4,16,0.00,,---,0.00,VWS V14.01,2013-08-25 19:13:00,
2013-08-25 14:14:00,85.1,33.9,25.10,ESE,123,5.4,5.4,16,0.00,,---,0.00,VWS V14.01,2013-08-25 19:14:00,
2013-08-25 14:15:00,85.1,33.9,25.10,ESE,123,5.4,5.4,16,0.00,,---,0.00,VWS V14.01,2013-08-25 19:15:00,
2013-08-25 14:16:00,83.7,32.8,25.10,ESE,123,5.4,5.4,16,0.00,,---,0.00,VWS V14.01,2013-08-25 19:16:00,
2013-08-25 14:18:00,83.1,32.3,25.10,ESE,123,5.4,5.4,16,0.00,,---,0.00,VWS V14.01,2013-08-25 19:18:00,
2013-08-25 14:19:00,83.1,32.3,25.10,ESE,123,5.4,5.4,16,0.00,,---,0.00,VWS V14.01,2013-08-25 19:19:00,
2013-08-25 14:20:00,83.1,32.3,25.10,ESE,123,5.4,5.4,16,0.00,,---,0.00,VWS V14.01,2013-08-25 19:20:00,
2013-08-25 14:22:00,82.8,32.0,25.10,ESE,123,5.4,5.4,16,0.00,,---,0.00,VWS V14.01,2013-08-25 19:22:00,
2013-08-25 14:23:00,82.8,32.0,25.10,ESE,123,5.4,5.4,16,0.00,,---,0.00,VWS V14.01,2013-08-25 19:23:00,
2013-08-25 14:24:00,82.8,32.0,25.10,ESE,123,5.4,5.4,16,0.00,,---,0.00,VWS V14.01,2013-08-25 19:24:00,
2013-08-25 14:25:00,82.6,31.9,25.10,ESE,123,5.4,5.4,16,0.00,,---,0.00,VWS V14.01,2013-08-25 19:25:00,
2013-08-25 14:27:00,82.6,31.9,25.10,ESE,123,5.4,5.4,16,0.00,,---,0.00,VWS V14.01,2013-08-25 19:27:00,
2013-08-25 14:28:00,82.6,31.9,25.10,ESE,123,5.4,5.4,16,0.00,,---,0.00,VWS V14.01,2013-08-25 19:28:00,
2013-08-25 14:29:00,82.6,31.9,25.10,ESE,123,5.4,5.4,16,0.00,,---,0.00,VWS V14.01,2013-08-25 19:29:00,
2013-08-25 14:30:00,82.6,31.9,25.10,ESE,123,5.4,5.4,16,0.00,,---,0.00,VWS V14.01,2013-08-25 19:30:00,
2013-08-25 14:33:00,82.6,31.9,25.10,ESE,123,5.4,5.4,16,0.00,,---,0.00,VWS V14.01,2013-08-25 19:33:00,
2013-08-25 14:34:00,82.0,33.0,25.10,ESE,123,5.4,5.4,17,0.00,,---,0.00,VWS V14.01,2013-08-25 19:34:00,
2013-08-25 14:35:00,81.9,32.8,25.10,ESE,123,5.4,5.4,17,0.00,,---,0.00,VWS V14.01,2013-08-25 19:35:00,
2013-08-25 14:38:00,81.9,32.8,25.10,ESE,123,5.4,5.4,17,0.00,,---,0.00,VWS V14.01,2013-08-25 19:38:00,
2013-08-25 14:39:00,81.9,32.8,25.10,ESE,123,5.4,5.4,17,0.00,,---,0.00,VWS V14.01,2013-08-25 19:39:00,
2013-08-25 14:40:00,81.9,32.8,25.10,ESE,123,5.4,5.4,17,0.00,,---,0.00,VWS V14.01,2013-08-25 19:40:00,
2013-08-25 14:41:00,81.9,32.8,25.10,ESE,123,5.4,5.4,17,0.00,,---,0.00,VWS V14.01,2013-08-25 19:41:00,
2013-08-25 14:43:00,81.1,32.2,25.10,ESE,123,5.4,5.4,17,0.00,,---,0.00,VWS V14.01,2013-08-25 19:43:00,
2013-08-25 14:45:00,81.0,32.1,25.10,ESE,123,5.4,5.4,17,0.00,,---,0.00,VWS V14.01,2013-08-25 19:45:00,
2013-08-25 14:46:00,81.0,32.1,25.10,ESE,123,5.4,5.4,17,0.00,,---,0.00,VWS V14.01,2013-08-25 19:46:00,
2013-08-25 14:48:00,81.0,32.1,25.10,ESE,123,5.4,5.4,17,0.00,,---,0.00,VWS V14.01,2013-08-25 19:48:00,
2013-08-25 14:50:00,81.0,32.1,25.10,ESE,123,5.4,5.4,17,0.00,,---,0.00,VWS V14.01,2013-08-25 19:50:00,
2013-08-25 14:51:00,79.9,31.2,25.10,ESE,123,5.4,5.4,17,0.00,,---,0.00,VWS V14.01,2013-08-25 19:51:00,
2013-08-25 14:53:00,79.9,31.2,25.10,ESE,123,5.4,5.4,17,0.00,,---,0.00,VWS V14.01,2013-08-25 19:53:00,
2013-08-25 14:55:00,79.9,31.2,25.10,ESE,123,5.4,5.4,17,0.00,,---,0.00,VWS V14.01,2013-08-25 19:55:00,
2013-08-25 14:56:00,79.9,31.2,25.10,ESE,123,5.4,5.4,17,0.00,,---,0.00,VWS V14.01,2013-08-25 19:56:00,
2013-08-25 14:58:00,79.9,31.2,25.10,ESE,123,5.4,5.4,17,0.00,,---,0.00,VWS V14.01,2013-08-25 19:58:00,
2013-08-25 15:00:00,79.9,31.2,25.10,ESE,123,5.4,5.4,17,0.00,,---,0.00,VWS V14.01,2013-08-25 20:00:00,
2013-08-25 15:01:00,79.9,31.2,25.10,ESE,123,5.4,5.4,17,0.00,,---,0.00,VWS V14.01,2013-08-25 20:01:00,
2013-08-25 15:03:00,80.1,31.4,25.10,ESE,123,5.4,5.4,17,0.00,,---,0.00,VWS V14.01,2013-08-25 20:03:00,
2013-08-25 15:06:00,80.1,31.4,25.10,ESE,123,5.4,5.4,17,0.00,,---,0.00,VWS V14.01,2013-08-25 20:06:00,
2013-08-25 15:07:00,80.1,31.4,25.10,ESE,123,5.4,5.4,17,0.00,,---,0.00,VWS V14.01,2013-08-25 20:07:00,
2013-08-25 15:08:00,80.6,31.8,25.10,ESE,123,5.4,5.4,17,0.00,,---,0.00,VWS V14.01,2013-08-25 20:08:00,
2013-08-25 15:11:00,81.0,32.1,25.10,ESE,123,5.4,5.4,17,0.00,,---,0.00,VWS V14.01,2013-08-25 20:11:00,
2013-08-25 15:12:00,81.0,32.1,25.10,ESE,123,5.4,5.4,17,0.00,,---,0.00,VWS V14.01,2013-08-25 20:12:00,
2013-08-25 15:14:00,81.7,32.7,25.10,ESE,123,5.4,5.4,17,0.00,,---,0.00,VWS V14.01,2013-08-25 20:14:00,
2013-08-25 15:16:00,81.7,32.7,25.10,ESE,123,5.4,5.4,17,0.00,,---,0.00,VWS V14.01,2013-08-25 20:16:00,
2013-08-25 15:17:00,82.2,33.1,25.10,ESE,123,5.4,5.4,17,0.00,,---,0.00,VWS V14.01,2013-08-25 20:17:00,
2013-08-25 15:21:00,82.4,31.8,25.10,ESE,123,5.4,5.4,16,0.00,,---,0.00,VWS V14.01,2013-08-25 20:21:00,
2013-08-25 15:22:00,82.4,31.8,25.10,ESE,123,5.4,5.4,16,0.00,,---,0.00,VWS V14.01,2013-08-25 20:22:00,
2013-08-25 15:23:00,82.4,31.8,25.10,ESE,123,5.4,5.4,16,0.00,,---,0.00,VWS V14.01,2013-08-25 20:23:00,
2013-08-25 15:26:00,83.5,32.6,25.10,SE,142,5.8,5.8,16,0.00,,---,0.00,VWS V14.01,2013-08-25 20:26:00,
2013-08-25 15:27:00,83.5,32.6,25.10,SE,142,5.8,5.8,16,0.00,,---,0.00,VWS V14.01,2013-08-25 20:27:00,
2013-08-25 15:28:00,83.7,32.8,25.10,SE,142,5.8,5.8,16,0.00,,---,0.00,VWS V14.01,2013-08-25 20:28:00,
2013-08-25 15:32:00,83.7,32.8,25.10,SE,144,10.5,10.5,16,0.00,,---,0.00,VWS V14.01,2013-08-25 20:32:00,
2013-08-25 15:33:00,83.7,32.8,25.10,SE,144,10.5,10.5,16,0.00,,---,0.00,VWS V14.01,2013-08-25 20:33:00,
2013-08-25 15:37:00,82.4,31.8,25.10,SE,144,10.5,10.5,16,0.00,,---,0.00,VWS V14.01,2013-08-25 20:37:00,
2013-08-25 15:38:00,82.4,31.8,25.10,SSE,154,7.6,7.6,16,0.00,,---,0.00,VWS V14.01,2013-08-25 20:38:00,
2013-08-25 15:42:00,82.4,31.8,25.10,SSE,154,7.6,7.6,16,0.00,,---,0.00,VWS V14.01,2013-08-25 20:42:00,
2013-08-25 15:43:00,82.4,31.8,25.10,SSE,154,7.6,7.6,16,0.00,,---,0.00,VWS V14.01,2013-08-25 20:43:00,
2013-08-25 15:47:00,82.2,33.1,25.10,ESE,117,8.7,8.7,17,0.00,,---,0.00,VWS V14.01,2013-08-25 20:47:00,
2013-08-25 15:48:00,82.2,33.1,25.10,ESE,117,8.7,8.7,17,0.00,,---,0.00,VWS V14.01,2013-08-25 20:48:00,
2013-08-25 15:49:00,82.2,33.1,25.10,ESE,117,8.7,8.7,17,0.00,,---,0.00,VWS V14.01,2013-08-25 20:49:00,
2013-08-25 15:52:00,81.0,34.9,25.10,ESE,122,10.5,10.5,19,0.00,,---,0.00,VWS V14.01,2013-08-25 20:52:00,
2013-08-25 15:53:00,81.1,35.0,25.10,ESE,122,10.5,10.5,19,0.00,,---,0.00,VWS V14.01,2013-08-25 20:53:00,
2013-08-25 15:54:00,81.1,35.0,25.10,ESE,122,10.5,10.5,19,0.00,,---,0.00,VWS V14.01,2013-08-25 20:54:00,
2013-08-25 15:58:00,81.3,35.2,25.10,ESE,122,10.5,10.5,19,0.00,,---,0.00,VWS V14.01,2013-08-25 20:58:00,
2013-08-25 15:59:00,81.3,35.2,25.10,ESE,113,10.1,10.5,19,0.00,,---,0.00,VWS V14.01,2013-08-25 20:59:00,
2013-08-25 16:03:00,81.1,35.0,25.10,ESE,113,10.1,10.1,19,0.00,,---,0.00,VWS V14.01,2013-08-25 21:03:00,
2013-08-25 16:04:00,81.1,35.0,25.10,ESE,113,10.1,10.1,19,0.00,,---,0.00,VWS V14.01,2013-08-25 21:04:00,
2013-08-25 16:08:00,81.1,35.0,25.10,ESE,120,9.6,9.6,19,0.00,,---,0.00,VWS V14.01,2013-08-25 21:08:00,
2013-08-25 16:09:00,81.3,35.2,25.10,ESE,120,9.6,9.6,19,0.00,,---,0.00,VWS V14.01,2013-08-25 21:09:00,
2013-08-25 16:10:00,81.3,35.2,25.10,ESE,120,9.6,9.6,19,0.00,,---,0.00,VWS V14.01,2013-08-25 21:10:00,
2013-08-25 16:14:00,81.5,35.3,25.10,ESE,116,10.5,10.5,19,0.00,,---,0.00,VWS V14.01,2013-08-25 21:14:00,
2013-08-25 16:15:00,81.5,35.3,25.10,ESE,116,10.5,10.5,19,0.00,,---,0.00,VWS V14.01,2013-08-25 21:15:00,
2013-08-25 16:19:00,81.1,35.0,25.10,ESE,116,10.5,10.5,19,0.00,,---,0.00,VWS V14.01,2013-08-25 21:19:00,
2013-08-25 16:20:00,81.1,35.0,25.10,SE,136,12.8,12.8,19,0.00,,---,0.00,VWS V14.01,2013-08-25 21:20:00,
2013-08-25 16:24:00,81.9,35.6,25.10,SE,136,12.8,12.8,19,0.00,,---,0.00,VWS V14.01,2013-08-25 21:24:00,
2013-08-25 16:25:00,81.9,35.6,25.10,SE,136,12.8,12.8,19,0.00,,---,0.00,VWS V14.01,2013-08-25 21:25:00,
2013-08-25 16:29:00,79.9,35.3,25.10,East,99,6.3,6.3,20,0.00,,---,0.00,VWS V14.01,2013-08-25 21:29:00,
2013-08-25 16:30:00,79.9,35.3,25.10,East,99,6.3,6.3,20,0.00,,---,0.00,VWS V14.01,2013-08-25 21:30:00,
2013-08-25 16:31:00,79.9,35.3,25.10,East,99,6.3,6.3,20,0.00,,---,0.00,VWS V14.01,2013-08-25 21:31:00,
2013-08-25 16:34:00,78.4,34.1,25.10,SSE,149,8.3,8.3,20,0.00,,---,0.00,VWS V14.01,2013-08-25 21:34:00,
2013-08-25 16:35:00,78.4,34.1,25.10,SSE,149,8.3,8.3,20,0.00,,---,0.00,VWS V14.01,2013-08-25 21:35:00,
2013-08-25 16:37:00,77.9,33.6,25.10,SSE,149,8.3,8.3,20,0.00,,---,0.00,VWS V14.01,2013-08-25 21:37:00,
2013-08-25 16:39:00,77.9,33.6,25.10,SSE,149,8.3,8.3,20,0.00,,---,0.00,VWS V14.01,2013-08-25 21:39:00,
2013-08-25 16:41:00,77.9,33.6,25.10,SE,130,8.1,8.1,20,0.00,,---,0.00,VWS V14.01,2013-08-25 21:41:00,
2013-08-25 16:42:00,77.9,33.6,25.10,ESE,118,8.3,8.3,20,0.00,,---,0.00,VWS V14.01,2013-08-25 21:42:00,
2013-08-25 16:44:00,76.6,33.8,25.10,ESE,118,8.3,8.3,21,0.00,,---,0.00,VWS V14.01,2013-08-25 21:44:00,
2013-08-25 16:46:00,76.3,33.5,25.10,ESE,118,8.3,8.3,21,0.00,,---,0.00,VWS V14.01,2013-08-25 21:46:00,
2013-08-25 16:47:00,76.3,33.5,25.10,ESE,118,8.3,8.3,21,0.00,,---,0.00,VWS V14.01,2013-08-25 21:47:00,
2013-08-25 16:48:00,76.3,33.5,25.10,ESE,110,11.0,11.0,21,0.00,,---,0.00,VWS V14.01,2013-08-25 21:48:00,
2013-08-25 16:50:00,76.3,33.5,25.10,ESE,103,8.3,11.0,21,0.00,,---,0.00,VWS V14.01,2013-08-25 21:50:00,
2013-08-25 16:52:00,75.9,33.2,25.10,ESE,103,8.3,8.3,21,0.00,,---,0.00,VWS V14.01,2013-08-25 21:52:00,
2013-08-25 16:54:00,75.7,33.1,25.10,ESE,103,8.3,8.3,21,0.00,,---,0.00,VWS V14.01,2013-08-25 21:54:00,
2013-08-25 16:55:00,75.7,33.1,25.10,SE,129,8.7,8.7,21,0.00,,---,0.00,VWS V14.01,2013-08-25 21:55:00,
2013-08-25 16:57:00,75.7,33.1,25.10,SE,129,8.7,8.7,21,0.00,,---,0.00,VWS V14.01,2013-08-25 21:57:00,
2013-08-25 16:58:00,75.7,33.1,25.10,SE,129,8.7,8.7,21,0.00,,---,0.00,VWS V14.01,2013-08-25 21:58:00,
2013-08-25 16:59:00,75.7,33.1,25.10,SE,129,8.7,8.7,21,0.00,,---,0.00,VWS V14.01,2013-08-25 21:59:00,
2013-08-25 17:01:00,75.4,32.8,25.10,ESE,117,8.3,8.3,21,0.00,,---,0.00,VWS V14.01,2013-08-25 22:01:00,
2013-08-25 17:03:00,75.4,32.8,25.07,ESE,113,5.8,5.8,21,0.00,,---,0.00,VWS V14.01,2013-08-25 22:03:00,
2013-08-25 17:04:00,75.4,32.8,25.07,ESE,113,5.8,5.8,21,0.00,,---,0.00,VWS V14.01,2013-08-25 22:04:00,
2013-08-25 17:05:00,75.4,32.8,25.07,ESE,113,5.8,5.8,21,0.00,,---,0.00,VWS V14.01,2013-08-25 22:05:00,
2013-08-25 17:07:00,75.2,33.8,25.07,ESE,113,5.8,5.8,22,0.00,,---,0.00,VWS V14.01,2013-08-25 22:07:00,
2013-08-25 17:08:00,75.2,33.8,25.07,ENE,78,6.3,6.3,22,0.00,,---,0.00,VWS V14.01,2013-08-25 22:08:00,
2013-08-25 17:10:00,75.2,32.6,25.07,ESE,103,5.8,5.8,21,0.00,,---,0.00,VWS V14.01,2013-08-25 22:10:00,
2013-08-25 17:12:00,75.2,32.6,25.07,ESE,103,5.8,5.8,21,0.00,,---,0.00,VWS V14.01,2013-08-25 22:12:00,
2013-08-25 17:13:00,75.2,32.6,25.07,ESE,103,5.8,5.8,21,0.00,,---,0.00,VWS V14.01,2013-08-25 22:13:00,
2013-08-25 17:15:00,75.2,32.6,25.07,ESE,103,5.8,5.8,21,0.00,,---,0.00,VWS V14.01,2013-08-25 22:15:00,
2013-08-25 17:16:00,75.2,32.6,25.07,ESE,104,3.6,3.6,21,0.00,,---,0.00,VWS V14.01,2013-08-25 22:16:00,
2013-08-25 17:17:00,75.2,32.6,25.07,ESE,104,3.6,3.6,21,0.00,,---,0.00,VWS V14.01,2013-08-25 22:17:00,
2013-08-25 17:18:00,76.3,33.5,25.07,ESE,104,3.6,3.6,21,0.00,,---,0.00,VWS V14.01,2013-08-25 22:18:00,
2013-08-25 17:20:00,76.3,33.5,25.10,ESE,104,3.6,3.6,21,0.00,,---,0.00,VWS V14.01,2013-08-25 22:20:00,
2013-08-25 17:21:00,76.3,33.5,25.10,ESE,104,3.6,3.6,21,0.00,,---,0.00,VWS V14.01,2013-08-25 22:21:00,
2013-08-25 17:23:00,76.3,33.5,25.10,ESE,104,4.0,4.0,21,0.00,,---,0.00,VWS V14.01,2013-08-25 22:23:00,
2013-08-25 17:24:00,76.3,33.5,25.10,East,87,6.3,6.3,21,0.00,,---,0.00,VWS V14.01,2013-08-25 22:24:00,
2013-08-25 17:25:00,76.3,33.5,25.10,East,87,6.3,6.3,21,0.00,,---,0.00,VWS V14.01,2013-08-25 22:25:00,
2013-08-25 17:27:00,77.2,33.0,25.10,East,87,6.3,6.3,20,0.00,,---,0.00,VWS V14.01,2013-08-25 22:27:00,
2013-08-25 17:28:00,77.2,33.0,25.10,East,87,6.3,6.3,20,0.00,,---,0.00,VWS V14.01,2013-08-25 22:28:00,
2013-08-25 17:29:00,77.2,33.0,25.10,East,98,5.8,6.3,20,0.00,,---,0.00,VWS V14.01,2013-08-25 22:29:00,
2013-08-25 17:30:00,77.2,33.0,25.10,East,98,5.8,5.8,20,0.00,,---,0.00,VWS V14.01,2013-08-25 22:30:00,
2013-08-25 17:32:00,77.2,33.0,25.10,East,98,5.8,5.8,20,0.00,,---,0.00,VWS V14.01,2013-08-25 22:32:00,
2013-08-25 17:33:00,77.2,33.0,25.10,ESE,109,6.3,6.3,20,0.00,,---,0.00,VWS V14.01,2013-08-25 22:33:00,
2013-08-25 17:35:00,77.2,33.0,25.10,ESE,109,6.3,6.3,20,0.00,,---,0.00,VWS V14.01,2013-08-25 22:35:00,
2013-08-25 17:38:00,77.2,33.0,25.10,East,89,5.4,5.4,20,0.00,,---,0.00,VWS V14.01,2013-08-25 22:38:00,
2013-08-25 17:41:00,77.2,33.0,25.10,East,89,5.8,5.8,20,0.00,,---,0.00,VWS V14.01,2013-08-25 22:41:00,
2013-08-25 17:43:00,77.2,33.0,25.10,East,89,5.8,5.8,20,0.00,,---,0.00,VWS V14.01,2013-08-25 22:43:00,
2013-08-25 17:46:00,76.5,33.7,25.10,East,94,5.4,5.4,21,0.00,,---,0.00,VWS V14.01,2013-08-25 22:46:00,
2013-08-25 17:47:00,76.5,33.7,25.10,East,94,5.4,5.4,21,0.00,,---,0.00,VWS V14.01,2013-08-25 22:47:00,
2013-08-25 17:49:00,76.5,33.7,25.10,East,94,5.4,5.4,21,0.00,,---,0.00,VWS V14.01,2013-08-25 22:49:00,
2013-08-25 17:52:00,76.5,33.7,25.10,ESE,106,4.0,4.0,21,0.00,,---,0.00,VWS V14.01,2013-08-25 22:52:00,
2013-08-25 17:54:00,76.5,33.7,25.10,ESE,106,4.0,4.0,21,0.00,,---,0.00,VWS V14.01,2013-08-25 22:54:00,
2013-08-25 17:57:00,76.5,33.7,25.10,ESE,106,4.0,4.0,21,0.00,,---,0.00,VWS V14.01,2013-08-25 22:57:00,
2013-08-25 18:00:00,76.5,33.7,25.10,SE,134,5.8,5.8,21,0.00,,---,0.00,VWS V14.01,2013-08-25 23:00:00,
2013-08-25 18:02:00,76.6,33.8,25.10,SE,134,5.8,5.8,21,0.00,,---,0.00,VWS V14.01,2013-08-25 23:02:00,
2013-08-25 18:03:00,76.6,33.8,25.10,ESE,102,4.9,5.8,21,0.00,,---,0.00,VWS V14.01,2013-08-25 23:03:00,
2013-08-25 18:05:00,76.6,33.8,25.07,ESE,107,4.0,4.9,21,0.00,,---,0.00,VWS V14.01,2013-08-25 23:05:00,
2013-08-25 18:07:00,76.6,33.8,25.07,ESE,108,5.8,5.8,21,0.00,,---,0.00,VWS V14.01,2013-08-25 23:07:00,
2013-08-25 18:08:00,76.6,33.8,25.07,ESE,108,5.8,5.8,21,0.00,,---,0.00,VWS V14.01,2013-08-25 23:08:00,
2013-08-25 18:09:00,76.6,33.8,25.07,ESE,108,5.8,5.8,21,0.00,,---,0.00,VWS V14.01,2013-08-25 23:09:00,
2013-08-25 18:10:00,77.2,34.3,25.07,ESE,108,5.8,5.8,21,0.00,,---,0.00,VWS V14.01,2013-08-25 23:10:00,
2013-08-25 18:12:00,77.2,34.3,25.07,ESE,104,5.4,5.4,21,0.00,,---,0.00,VWS V14.01,2013-08-25 23:12:00,
2013-08-25 18:13:00,77.2,34.3,25.07,ESE,104,5.4,5.4,21,0.00,,---,0.00,VWS V14.01,2013-08-25 23:13:00,
2013-08-25 18:14:00,77.2,34.3,25.07,ESE,104,5.4,5.4,21,0.00,,---,0.00,VWS V14.01,2013-08-25 23:14:00,
2013-08-25 18:16:00,77.2,34.3,25.07,ESE,104,5.4,5.4,21,0.00,,---,0.00,VWS V14.01,2013-08-25 23:16:00,
2013-08-25 18:17:00,77.2,34.3,25.07,ESE,117,5.4,5.4,21,0.00,,---,0.00,VWS V14.01,2013-08-25 23:17:00,
2013-08-25 18:18:00,77.4,34.4,25.07,ESE,117,5.4,5.4,21,0.00,,---,0.00,VWS V14.01,2013-08-25 23:18:00,
2013-08-25 18:19:00,77.4,34.4,25.07,ESE,122,5.8,5.8,21,0.00,,---,0.00,VWS V14.01,2013-08-25 23:19:00,
2013-08-25 18:21:00,77.4,34.4,25.07,ESE,122,5.8,5.8,21,0.00,,---,0.00,VWS V14.01,2013-08-25 23:21:00,
2013-08-25 18:22:00,77.4,34.4,25.07,East,99,3.6,3.6,21,0.00,,---,0.00,VWS V14.01,2013-08-25 23:22:00,
2013-08-25 18:23:00,77.4,34.4,25.07,East,99,3.6,3.6,21,0.00,,---,0.00,VWS V14.01,2013-08-25 23:23:00,
2013-08-25 18:24:00,77.4,34.4,25.07,East,99,3.6,3.6,21,0.00,,---,0.00,VWS V14.01,2013-08-25 23:24:00,
2013-08-25 18:25:00,77.4,34.4,25.07,ESE,109,3.1,3.1,21,0.00,,---,0.00,VWS V14.01,2013-08-25 23:25:00,
2013-08-25 18:26:00,77.9,34.9,25.07,East,87,4.0,4.0,21,0.00,,---,0.00,VWS V14.01,2013-08-25 23:26:00,
2013-08-25 18:27:00,77.9,34.9,25.07,ENE,76,4.0,4.0,21,0.00,,---,0.00,VWS V14.01,2013-08-25 23:27:00,
2013-08-25 18:28:00,77.9,34.9,25.07,ENE,76,4.0,4.0,21,0.00,,---,0.00,VWS V14.01,2013-08-25 23:28:00,
2013-08-25 18:30:00,77.9,34.9,25.07,ENE,76,4.0,4.0,21,0.00,,---,0.00,VWS V14.01,2013-08-25 23:30:00,
2013-08-25 18:33:00,77.9,34.9,25.07,East,98,5.8,5.8,21,0.00,,---,0.00,VWS V14.01,2013-08-25 23:33:00,
2013-08-25 18:35:00,78.1,33.8,25.07,East,82,4.0,4.0,20,0.00,,---,0.00,VWS V14.01,2013-08-25 23:35:00,
2013-08-25 18:38:00,78.1,33.8,25.07,East,82,4.0,4.0,20,0.00,,---,0.00,VWS V14.01,2013-08-25 23:38:00,
2013-08-25 18:41:00,78.1,33.8,25.07,ESE,113,7.6,7.6,20,0.00,,---,0.00,VWS V14.01,2013-08-25 23:41:00,
2013-08-25 18:43:00,78.3,33.9,25.07,ESE,114,6.3,6.3,20,0.00,,---,0.00,VWS V14.01,2013-08-25 23:43:00,
2013-08-25 18:44:00,78.3,33.9,25.07,ESE,114,6.3,6.3,20,0.00,,---,0.00,VWS V14.01,2013-08-25 23:44:00,
2013-08-25 18:45:00,78.3,33.9,25.07,ESE,114,6.3,6.3,20,0.00,,---,0.00,VWS V14.01,2013-08-25 23:45:00,
2013-08-25 18:46:00,78.3,33.9,25.07,ESE,113,2.7,6.3,20,0.00,,---,0.00,VWS V14.01,2013-08-25 23:46:00,
2013-08-25 18:47:00,78.3,33.9,25.07,ESE,113,2.7,2.7,20,0.00,,---,0.00,VWS V14.01,2013-08-25 23:47:00,
2013-08-25 18:49:00,78.3,33.9,25.07,ESE,113,2.7,2.7,20,0.00,,---,0.00,VWS V14.01,2013-08-25 23:49:00,
2013-08-25 18:50:00,78.3,33.9,25.07,ESE,109,5.4,5.4,20,0.00,,---,0.00,VWS V14.01,2013-08-25 23:50:00,
2013-08-25 18:52:00,78.3,33.9,25.07,ESE,105,3.6,3.6,20,0.00,,---,0.00,VWS V14.01,2013-08-25 23:52:00,
2013-08-25 18:54:00,78.1,33.8,25.07,ESE,118,3.6,3.6,20,0.00,,---,0.00,VWS V14.01,2013-08-25 23:54:00,
2013-08-25 18:55:00,78.1,33.8,25.07,ESE,118,3.6,3.6,20,0.00,,---,0.00,VWS V14.01,2013-08-25 23:55:00,
2013-08-25 18:57:00,78.1,33.8,25.07,ESE,118,3.6,3.6,20,0.00,,---,0.00,VWS V14.01,2013-08-25 23:57:00,
2013-08-25 18:59:00,77.7,33.5,25.07,SE,124,5.4,5.4,20,0.00,,---,0.00,VWS V14.01,2013-08-25 23:59:00,
2013-08-25 19:00:00,77.7,33.5,25.07,ESE,109,4.0,4.0,20,0.00,,---,0.00,VWS V14.01,2013-08-26 00:00:00,
2013-08-25 19:02:00,77.7,33.5,25.07,ESE,109,4.0,4.0,20,0.00,,---,0.00,VWS V14.01,2013-08-26 00:02:00,
2013-08-25 19:03:00,77.7,33.5,25.07,ESE,109,4.0,4.0,20,0.00,,---,0.00,VWS V14.01,2013-08-26 00:03:00,
2013-08-25 19:04:00,77.7,33.5,25.07,ESE,109,4.0,4.0,20,0.00,,---,0.00,VWS V14.01,2013-08-26 00:04:00,
2013-08-25 19:05:00,77.7,33.5,25.07,ESE,109,4.0,4.0,20,0.00,,---,0.00,VWS V14.01,2013-08-26 00:05:00,
2013-08-25 19:09:00,77.7,33.5,25.07,ESE,119,5.8,5.8,20,0.00,,---,0.00,VWS V14.01,2013-08-26 00:09:00,
2013-08-25 19:10:00,77.2,33.0,25.07,ESE,115,3.1,3.1,20,0.00,,---,0.00,VWS V14.01,2013-08-26 00:10:00,
2013-08-25 19:11:00,77.2,33.0,25.07,ESE,115,3.1,3.1,20,0.00,,---,0.00,VWS V14.01,2013-08-26 00:11:00,
2013-08-25 19:14:00,77.2,33.0,25.07,ESE,117,2.2,2.2,20,0.00,,---,0.00,VWS V14.01,2013-08-26 00:14:00,
2013-08-25 19:15:00,77.2,33.0,25.07,SE,125,3.1,3.1,20,0.00,,---,0.00,VWS V14.01,2013-08-26 00:15:00,
2013-08-25 19:16:00,77.2,33.0,25.07,SE,125,3.1,3.1,20,0.00,,---,0.00,VWS V14.01,2013-08-26 00:16:00,
2013-08-25 19:19:00,76.3,33.5,25.07,ESE,122,3.6,3.6,21,0.00,,---,0.00,VWS V14.01,2013-08-26 00:19:00,
2013-08-25 19:20:00,76.3,33.5,25.07,ESE,122,3.6,3.6,21,0.00,,---,0.00,VWS V14.01,2013-08-26 00:20:00,
2013-08-25 19:21:00,76.3,33.5,25.07,ESE,122,3.6,3.6,21,0.00,,---,0.00,VWS V14.01,2013-08-26 00:21:00,
2013-08-25 19:24:00,76.3,33.5,25.07,ESE,121,3.1,3.1,21,0.00,,---,0.00,VWS V14.01,2013-08-26 00:24:00,
2013-08-25 19:25:00,76.3,33.5,25.07,ESE,121,3.1,3.1,21,0.00,,---,0.00,VWS V14.01,2013-08-26 00:25:00,
2013-08-25 19:26:00,76.3,33.5,25.07,SE,137,2.7,2.7,21,0.00,,---,0.00,VWS V14.01,2013-08-26 00:26:00,
2013-08-25 19:27:00,75.7,33.1,25.07,SE,137,2.7,2.7,21,0.00,,---,0.00,VWS V14.01,2013-08-26 00:27:00,
2013-08-25 19:29:00,75.7,33.1,25.07,SE,137,3.6,3.6,21,0.00,,---,0.00,VWS V14.01,2013-08-26 00:29:00,
2013-08-25 19:30:00,75.7,33.1,25.07,SE,137,3.6,3.6,21,0.00,,---,0.00,VWS V14.01,2013-08-26 00:30:00,
2013-08-25 19:31:00,75.7,33.1,25.07,SE,137,3.6,3.6,21,0.00,,---,0.00,VWS V14.01,2013-08-26 00:31:00,
2013-08-25 19:32:00,75.7,33.1,25.07,SE,137,3.6,3.6,21,0.00,,---,0.00,VWS V14.01,2013-08-26 00:32:00,
2013-08-25 19:34:00,75.4,32.8,25.07,SE,139,3.6,3.6,21,0.00,,---,0.00,VWS V14.01,2013-08-26 00:34:00,
2013-08-25 19:35:00,75.4,32.8,25.07,SE,139,3.6,3.6,21,0.00,,---,0.00,VWS V14.01,2013-08-26 00:35:00,
2013-08-25 19:36:00,75.2,32.6,25.07,ESE,120,4.0,4.0,21,0.00,,---,0.00,VWS V14.01,2013-08-26 00:36:00,
2013-08-25 19:38:00,75.2,32.6,25.07,ESE,120,4.0,4.0,21,0.00,,---,0.00,VWS V14.01,2013-08-26 00:38:00,
2013-08-25 19:40:00,75.2,32.6,25.07,SE,131,4.0,4.0,21,0.00,,---,0.00,VWS V14.01,2013-08-26 00:40:00,
2013-08-25 19:41:00,75.2,32.6,25.07,SE,131,4.0,4.0,21,0.00,,---,0.00,VWS V14.01,2013-08-26 00:41:00,
2013-08-25 19:44:00,75.2,32.6,25.07,ESE,120,4.0,4.0,21,0.00,,---,0.00,VWS V14.01,2013-08-26 00:44:00,
2013-08-25 19:47:00,75.2,32.6,25.07,ESE,123,3.6,3.6,21,0.00,,---,0.00,VWS V14.01,2013-08-26 00:47:00,
2013-08-25 19:48:00,75.2,32.6,25.07,SE,140,5.4,5.4,21,0.00,,---,0.00,VWS V14.01,2013-08-26 00:48:00,
2013-08-25 19:49:00,75.2,32.6,25.07,SE,140,5.4,5.4,21,0.00,,---,0.00,VWS V14.01,2013-08-26 00:49:00,
2013-08-25 19:52:00,75.2,32.6,25.07,SE,131,3.1,3.1,21,0.00,,---,0.00,VWS V14.01,2013-08-26 00:52:00,
2013-08-25 19:53:00,75.0,32.5,25.07,SE,131,3.1,3.1,21,0.00,,---,0.00,VWS V14.01,2013-08-26 00:53:00,
2013-08-25 19:54:00,75.0,32.5,25.07,SE,131,3.1,3.1,21,0.00,,---,0.00,VWS V14.01,2013-08-26 00:54:00,
2013-08-25 19:57:00,75.0,32.5,25.07,SE,142,2.7,3.1,21,0.00,,---,0.00,VWS V14.01,2013-08-26 00:57:00,
2013-08-25 19:58:00,75.0,32.5,25.07,SE,146,3.6,3.6,21,0.00,,---,0.00,VWS V14.01,2013-08-26 00:58:00,
2013-08-25 19:59:00,75.0,32.5,25.07,SE,146,3.6,3.6,21,0.00,,---,0.00,VWS V14.01,2013-08-26 00:59:00,
2013-08-25 20:02:00,74.5,32.0,25.07,SE,146,3.6,3.6,21,0.00,,---,0.00,VWS V14.01,2013-08-26 01:02:00,
2013-08-25 20:03:00,74.5,32.0,25.07,SE,146,3.6,3.6,21,0.00,,---,0.00,VWS V14.01,2013-08-26 01:03:00,
2013-08-25 20:04:00,74.5,32.0,25.07,SE,140,3.6,3.6,21,0.00,,---,0.00,VWS V14.01,2013-08-26 01:04:00,
2013-08-25 20:07:00,74.5,32.0,25.07,SE,127,4.9,4.9,21,0.00,,---,0.00,VWS V14.01,2013-08-26 01:07:00,
2013-08-25 20:08:00,74.5,32.0,25.07,SE,133,4.0,4.9,21,0.00,,---,0.00,VWS V14.01,2013-08-26 01:08:00,
2013-08-25 20:09:00,74.5,32.0,25.07,SE,133,4.0,4.9,21,0.00,,---,0.00,VWS V14.01,2013-08-26 01:09:00,
2013-08-25 20:12:00,73.9,31.6,25.07,SE,132,3.6,3.6,21,0.00,,---,0.00,VWS V14.01,2013-08-26 01:12:00,
2013-08-25 20:14:00,73.9,31.6,25.07,SE,132,3.6,3.6,21,0.00,,---,0.00,VWS V14.01,2013-08-26 01:14:00,
2013-08-25 20:15:00,73.9,31.6,25.07,SE,132,3.6,3.6,21,0.00,,---,0.00,VWS V14.01,2013-08-26 01:15:00,
2013-08-25 20:17:00,73.8,32.6,25.07,SE,140,3.6,3.6,22,0.00,,---,0.00,VWS V14.01,2013-08-26 01:17:00,
2013-08-25 20:19:00,73.6,32.4,25.07,SE,140,3.6,3.6,22,0.00,,---,0.00,VWS V14.01,2013-08-26 01:19:00,
2013-08-25 20:20:00,73.6,32.4,25.07,SE,140,3.6,3.6,22,0.00,,---,0.00,VWS V14.01,2013-08-26 01:20:00,
2013-08-25 20:23:00,73.6,32.4,25.07,SE,140,3.6,3.6,22,0.00,,---,0.00,VWS V14.01,2013-08-26 01:23:00,
2013-08-25 20:24:00,73.6,32.4,25.07,SE,140,3.6,3.6,22,0.00,,---,0.00,VWS V14.01,2013-08-26 01:24:00,
2013-08-25 20:25:00,73.6,32.4,25.07,ESE,122,4.9,4.9,22,0.00,,---,0.00,VWS V14.01,2013-08-26 01:25:00,
2013-08-25 20:26:00,73.6,32.4,25.07,ESE,121,4.0,4.9,22,0.00,,---,0.00,VWS V14.01,2013-08-26 01:26:00,
2013-08-25 20:28:00,73.2,32.1,25.07,ESE,120,3.1,4.9,22,0.00,,---,0.00,VWS V14.01,2013-08-26 01:28:00,
2013-08-25 20:29:00,73.2,32.1,25.07,ESE,120,3.1,3.1,22,0.00,,---,0.00,VWS V14.01,2013-08-26 01:29:00,
2013-08-25 20:30:00,73.2,32.1,25.07,ESE,120,3.1,3.1,22,0.00,,---,0.00,VWS V14.01,2013-08-26 01:30:00,
2013-08-25 20:31:00,73.2,32.1,25.07,ESE,120,3.1,3.1,22,0.00,,---,0.00,VWS V14.01,2013-08-26 01:31:00,
2013-08-25 20:33:00,73.2,32.1,25.07,SE,135,4.0,4.0,22,0.00,,---,0.00,VWS V14.01,2013-08-26 01:33:00,
2013-08-25 20:35:00,73.2,32.1,25.07,SE,131,3.1,4.0,22,0.00,,---,0.00,VWS V14.01,2013-08-26 01:35:00,
2013-08-25 20:36:00,73.2,32.1,25.07,SE,129,4.0,4.0,22,0.00,,---,0.00,VWS V14.01,2013-08-26 01:36:00,
2013-08-25 20:38:00,73.0,32.0,25.07,SE,129,4.0,4.0,22,0.00,,---,0.00,VWS V14.01,2013-08-26 01:38:00,
2013-08-25 20:40:00,73.0,32.0,25.07,ESE,109,5.4,5.4,22,0.00,,---,0.00,VWS V14.01,2013-08-26 01:40:00,
2013-08-25 20:41:00,73.0,32.0,25.07,ESE,109,5.4,5.4,22,0.00,,---,0.00,VWS V14.01,2013-08-26 01:41:00,
2013-08-25 20:43:00,73.0,32.0,25.07,SE,127,2.7,5.4,22,0.00,,---,0.00,VWS V14.01,2013-08-26 01:43:00,
2013-08-25 20:45:00,72.5,31.5,25.07,SE,127,2.7,2.7,22,0.00,,---,0.00,VWS V14.01,2013-08-26 01:45:00,
2013-08-25 20:46:00,72.5,32.6,25.07,SE,133,2.7,2.7,23,0.00,,---,0.00,VWS V14.01,2013-08-26 01:46:00,
2013-08-25 20:48:00,72.5,32.6,25.04,SE,133,2.7,2.7,23,0.00,,---,0.00,VWS V14.01,2013-08-26 01:48:00,
2013-08-25 20:50:00,72.5,32.6,25.04,SE,133,3.6,3.6,23,0.00,,---,0.00,VWS V14.01,2013-08-26 01:50:00,
2013-08-25 20:51:00,72.5,32.6,25.04,SE,133,3.6,3.6,23,0.00,,---,0.00,VWS V14.01,2013-08-26 01:51:00,
2013-08-25 20:54:00,72.3,32.5,25.04,SE,132,2.7,2.7,23,0.00,,---,0.00,VWS V14.01,2013-08-26 01:54:00,
2013-08-25 20:55:00,72.3,32.5,25.04,SE,130,3.6,3.6,23,0.00,,---,0.00,VWS V14.01,2013-08-26 01:55:00,
2013-08-25 20:56:00,72.3,32.5,25.04,SE,130,3.6,3.6,23,0.00,,---,0.00,VWS V14.01,2013-08-26 01:56:00,
2013-08-25 20:59:00,72.3,32.5,25.04,SE,130,3.6,3.6,23,0.00,,---,0.00,VWS V14.01,2013-08-26 01:59:00,
2013-08-25 21:00:00,72.3,32.5,25.04,SE,130,2.7,3.1,23,0.00,,---,0.00,VWS V14.01,2013-08-26 02:00:00,
2013-08-25 21:01:00,72.3,32.5,25.04,SE,130,2.7,2.7,23,0.00,,---,0.00,VWS V14.01,2013-08-26 02:01:00,
2013-08-25 21:02:00,72.3,32.5,25.04,SE,130,2.7,2.7,23,0.00,,---,0.00,VWS V14.01,2013-08-26 02:02:00,
2013-08-25 21:04:00,71.8,32.0,25.07,SE,130,2.7,2.7,23,0.00,,---,0.00,VWS V14.01,2013-08-26 02:04:00,
2013-08-25 21:05:00,71.8,32.0,25.07,SE,130,2.7,2.7,23,0.00,,---,0.00,VWS V14.01,2013-08-26 02:05:00,
2013-08-25 21:06:00,71.8,32.0,25.07,SE,130,2.7,2.7,23,0.00,,---,0.00,VWS V14.01,2013-08-26 02:06:00,
2013-08-25 21:07:00,71.8,32.0,25.07,SE,130,2.7,2.7,23,0.00,,---,0.00,VWS V14.01,2013-08-26 02:07:00,
2013-08-25 21:09:00,71.8,32.0,25.07,SE,130,2.7,2.7,23,0.00,,---,0.00,VWS V14.01,2013-08-26 02:09:00,
2013-08-25 21:10:00,71.8,32.0,25.07,SE,130,2.7,2.7,23,0.00,,---,0.00,VWS V14.01,2013-08-26 02:10:00,
2013-08-25 21:11:00,71.4,32.8,25.07,SE,130,2.7,2.7,24,0.00,,---,0.00,VWS V14.01,2013-08-26 02:11:00,
2013-08-25 21:12:00,71.4,32.8,25.07,SE,130,3.1,3.1,24,0.00,,---,0.00,VWS V14.01,2013-08-26 02:12:00,
2013-08-25 21:15:00,71.4,32.8,25.07,SE,130,2.7,2.7,24,0.00,,---,0.00,VWS V14.01,2013-08-26 02:15:00,
2013-08-25 21:16:00,71.2,32.6,25.07,SE,130,2.7,2.7,24,0.00,,---,0.00,VWS V14.01,2013-08-26 02:16:00,
2013-08-25 21:17:00,71.2,32.6,25.07,SE,130,2.7,2.7,24,0.00,,---,0.00,VWS V14.01,2013-08-26 02:17:00,
2013-08-25 21:20:00,71.2,33.6,25.07,SSE,158,2.7,2.7,25,0.00,,---,0.00,VWS V14.01,2013-08-26 02:20:00,
2013-08-25 21:22:00,71.2,33.6,25.07,SSE,156,2.7,2.7,25,0.00,,---,0.00,VWS V14.01,2013-08-26 02:22:00,
2013-08-25 21:25:00,71.2,33.6,25.07,SSE,156,3.1,3.1,25,0.00,,---,0.00,VWS V14.01,2013-08-26 02:25:00,
2013-08-25 21:27:00,71.1,33.5,25.07,SSE,156,3.1,3.1,25,0.00,,---,0.00,VWS V14.01,2013-08-26 02:27:00,
2013-08-25 21:28:00,71.1,33.5,25.07,SSE,155,3.1,3.1,25,0.00,,---,0.00,VWS V14.01,2013-08-26 02:28:00,
2013-08-25 21:30:00,71.1,33.5,25.07,SSE,155,3.1,3.1,25,0.00,,---,0.00,VWS V14.01,2013-08-26 02:30:00,
2013-08-25 21:33:00,71.1,33.5,25.07,SSE,153,2.7,2.7,25,0.00,,---,0.00,VWS V14.01,2013-08-26 02:33:00,
2013-08-25 21:34:00,71.1,33.5,25.07,SSE,160,3.1,3.1,25,0.00,,---,0.00,VWS V14.01,2013-08-26 02:34:00,
2013-08-25 21:37:00,70.9,33.3,25.07,SSE,160,3.1,3.1,25,0.00,,---,0.00,VWS V14.01,2013-08-26 02:37:00,
2013-08-25 21:38:00,70.9,33.3,25.07,SSE,160,3.1,3.1,25,0.00,,---,0.00,VWS V14.01,2013-08-26 02:38:00,
2013-08-25 21:39:00,70.9,33.3,25.07,SSE,160,3.1,3.1,25,0.00,,---,0.00,VWS V14.01,2013-08-26 02:39:00,
2013-08-25 21:42:00,70.9,33.3,25.07,South,170,3.1,3.1,25,0.00,,---,0.00,VWS V14.01,2013-08-26 02:42:00,
2013-08-25 21:43:00,70.9,33.3,25.07,SSE,167,4.0,4.0,25,0.00,,---,0.00,VWS V14.01,2013-08-26 02:43:00,
2013-08-25 21:44:00,70.9,33.3,25.07,South,175,3.6,4.0,25,0.00,,---,0.00,VWS V14.01,2013-08-26 02:44:00,
2013-08-25 21:47:00,70.7,32.2,25.07,SSE,166,2.7,2.7,24,0.00,,---,0.00,VWS V14.01,2013-08-26 02:47:00,
2013-08-25 21:48:00,70.7,32.2,25.07,SSE,166,2.7,2.7,24,0.00,,---,0.00,VWS V14.01,2013-08-26 02:48:00,
2013-08-25 21:49:00,70.7,32.2,25.07,SSE,161,4.0,4.0,24,0.00,,---,0.00,VWS V14.01,2013-08-26 02:49:00,
2013-08-25 21:52:00,70.7,32.2,25.07,SSE,161,4.0,4.0,24,0.00,,---,0.00,VWS V14.01,2013-08-26 02:52:00,
2013-08-25 21:53:00,70.7,32.2,25.07,SSE,161,4.0,4.0,24,0.00,,---,0.00,VWS V14.01,2013-08-26 02:53:00,
2013-08-25 21:54:00,70.5,32.0,25.07,SSE,161,4.0,4.0,24,0.00,,---,0.00,VWS V14.01,2013-08-26 02:54:00,
2013-08-25 21:57:00,70.5,32.0,25.07,SSE,168,5.4,5.4,24,0.00,,---,0.00,VWS V14.01,2013-08-26 02:57:00,
2013-08-25 21:58:00,70.5,32.0,25.07,SSE,168,5.4,5.4,24,0.00,,---,0.00,VWS V14.01,2013-08-26 02:58:00,
2013-08-25 21:59:00,70.5,32.0,25.07,SSE,168,5.4,5.4,24,0.00,,---,0.00,VWS V14.01,2013-08-26 02:59:00,
2013-08-25 22:00:00,70.5,32.0,25.07,SSE,168,5.4,5.4,24,0.00,,---,0.00,VWS V14.01,2013-08-26 03:00:00,
2013-08-25 22:03:00,70.5,32.0,25.07,South,173,3.6,3.6,24,0.00,,---,0.00,VWS V14.01,2013-08-26 03:03:00,
2013-08-25 22:05:00,70.5,32.0,25.10,South,173,3.6,3.6,24,0.00,,---,0.00,VWS V14.01,2013-08-26 03:05:00,
2013-08-25 22:06:00,70.5,32.0,25.10,South,173,3.6,3.6,24,0.00,,---,0.00,VWS V14.01,2013-08-26 03:06:00,
2013-08-25 22:08:00,70.5,32.0,25.10,South,190,4.9,4.9,24,0.00,,---,0.00,VWS V14.01,2013-08-26 03:08:00,
2013-08-25 22:10:00,70.5,32.0,25.10,SSE,160,5.8,5.8,24,0.00,,---,0.00,VWS V14.01,2013-08-26 03:10:00,
2013-08-25 22:11:00,71.1,31.4,25.10,South,170,4.0,5.8,23,0.00,,---,0.00,VWS V14.01,2013-08-26 03:11:00,
2013-08-25 22:14:00,71.1,31.4,25.10,South,170,4.0,4.0,23,0.00,,---,0.00,VWS V14.01,2013-08-26 03:14:00,
2013-08-25 22:15:00,71.1,31.4,25.10,South,170,4.0,4.0,23,0.00,,---,0.00,VWS V14.01,2013-08-26 03:15:00,
2013-08-25 22:16:00,71.1,31.4,25.10,South,172,4.9,4.9,23,0.00,,---,0.00,VWS V14.01,2013-08-26 03:16:00,
2013-08-25 22:19:00,71.1,31.4,25.10,SSE,147,5.8,5.8,23,0.00,,---,0.00,VWS V14.01,2013-08-26 03:19:00,
2013-08-25 22:20:00,71.1,31.4,25.10,SSE,147,5.8,5.8,23,0.00,,---,0.00,VWS V14.01,2013-08-26 03:20:00,
2013-08-25 22:21:00,71.1,31.4,25.10,South,172,5.4,5.4,23,0.00,,---,0.00,VWS V14.01,2013-08-26 03:21:00,
2013-08-25 22:24:00,71.1,31.4,25.10,SSE,168,5.4,5.4,23,0.00,,---,0.00,VWS V14.01,2013-08-26 03:24:00,
2013-08-25 22:25:00,71.1,31.4,25.10,SSE,168,5.4,5.4,23,0.00,,---,0.00,VWS V14.01,2013-08-26 03:25:00,
2013-08-25 22:27:00,71.1,31.4,25.10,South,171,4.9,4.9,23,0.00,,---,0.00,VWS V14.01,2013-08-26 03:27:00,
2013-08-25 22:28:00,71.1,31.4,25.10,South,171,4.9,4.9,23,0.00,,---,0.00,VWS V14.01,2013-08-26 03:28:00,
2013-08-25 22:29:00,71.1,31.4,25.10,South,184,4.9,4.9,23,0.00,,---,0.00,VWS V14.01,2013-08-26 03:29:00,
2013-08-25 22:30:00,71.1,31.4,25.10,South,181,5.4,5.4,23,0.00,,---,0.00,VWS V14.01,2013-08-26 03:30:00,
2013-08-25 22:32:00,71.1,31.4,25.10,South,181,6.3,6.3,23,0.00,,---,0.00,VWS V14.01,2013-08-26 03:32:00,
2013-08-25 22:34:00,71.1,31.4,25.10,South,181,6.3,6.3,23,0.00,,---,0.00,VWS V14.01,2013-08-26 03:34:00,
2013-08-25 22:35:00,71.1,31.4,25.10,South,181,6.3,6.3,23,0.00,,---,0.00,VWS V14.01,2013-08-26 03:35:00,
2013-08-25 22:37:00,71.2,31.6,25.10,SSE,161,5.4,5.4,23,0.00,,---,0.00,VWS V14.01,2013-08-26 03:37:00,
2013-08-25 22:39:00,71.2,31.6,25.10,South,186,5.4,5.4,23,0.00,,---,0.00,VWS V14.01,2013-08-26 03:39:00,
2013-08-25 22:40:00,71.2,31.6,25.10,SSW,194,4.9,4.9,23,0.00,,---,0.00,VWS V14.01,2013-08-26 03:40:00,
2013-08-25 22:43:00,71.2,31.6,25.10,SSW,194,4.9,4.9,23,0.00,,---,0.00,VWS V14.01,2013-08-26 03:43:00,
2013-08-25 22:45:00,71.2,31.6,25.10,South,169,5.8,8.3,23,0.00,,---,0.00,VWS V14.01,2013-08-26 03:45:00,
2013-08-25 22:46:00,71.2,31.6,25.10,South,169,5.8,5.8,23,0.00,,---,0.00,VWS V14.01,2013-08-26 03:46:00,
2013-08-25 22:48:00,71.4,31.7,25.10,South,169,5.8,5.8,23,0.00,,---,0.00,VWS V14.01,2013-08-26 03:48:00,
2013-08-25 22:50:00,71.4,31.7,25.10,SW,216,5.8,5.8,23,0.00,,---,0.00,VWS V14.01,2013-08-26 03:50:00,
2013-08-25 22:51:00,71.4,31.7,25.10,South,175,5.4,5.8,23,0.00,,---,0.00,VWS V14.01,2013-08-26 03:51:00,
2013-08-25 22:53:00,71.4,31.7,25.10,South,186,7.2,7.2,23,0.00,,---,0.00,VWS V14.01,2013-08-26 03:53:00,
2013-08-25 22:55:00,71.6,30.8,25.10,South,186,7.2,7.2,22,0.00,,---,0.00,VWS V14.01,2013-08-26 03:55:00,
2013-08-25 22:56:00,71.6,30.8,25.10,South,186,7.2,7.2,22,0.00,,---,0.00,VWS V14.01,2013-08-26 03:56:00,
2013-08-25 22:57:00,71.6,30.8,25.10,South,186,7.2,7.2,22,0.00,,---,0.00,VWS V14.01,2013-08-26 03:57:00,
2013-08-25 22:58:00,71.6,30.8,25.10,South,186,7.2,7.2,22,0.00,,---,0.00,VWS V14.01,2013-08-26 03:58:00,
2013-08-25 23:00:00,71.6,30.8,25.10,SSE,168,6.3,6.3,22,0.00,,---,0.00,VWS V14.01,2013-08-26 04:00:00,
2013-08-25 23:01:00,71.6,30.8,25.10,SSE,168,6.3,6.3,22,0.00,,---,0.00,VWS V14.01,2013-08-26 04:01:00,
2013-08-25 23:02:00,71.4,31.7,25.10,SSE,154,4.9,6.3,23,0.00,,---,0.00,VWS V14.01,2013-08-26 04:02:00,
2013-08-25 23:06:00,71.4,31.7,25.10,SSE,154,4.9,4.9,23,0.00,,---,0.00,VWS V14.01,2013-08-26 04:06:00,
2013-08-25 23:07:00,71.4,31.7,25.10,SSE,154,4.9,4.9,23,0.00,,---,0.00,VWS V14.01,2013-08-26 04:07:00,
2013-08-25 23:11:00,70.7,31.1,25.10,SSE,151,4.0,4.0,23,0.00,,---,0.00,VWS V14.01,2013-08-26 04:11:00,
2013-08-25 23:12:00,70.7,31.1,25.10,SSE,151,4.0,4.0,23,0.00,,---,0.00,VWS V14.01,2013-08-26 04:12:00,
2013-08-25 23:16:00,70.7,31.1,25.10,SE,146,3.1,3.1,23,0.00,,---,0.00,VWS V14.01,2013-08-26 04:16:00,
2013-08-25 23:17:00,70.2,30.7,25.10,SE,146,3.1,3.1,23,0.00,,---,0.00,VWS V14.01,2013-08-26 04:17:00,
2013-08-25 23:21:00,70.0,30.5,25.10,SSE,162,3.1,3.1,23,0.00,,---,0.00,VWS V14.01,2013-08-26 04:21:00,
2013-08-25 23:22:00,70.0,30.5,25.10,SSE,162,3.1,3.1,23,0.00,,---,0.00,VWS V14.01,2013-08-26 04:22:00,
2013-08-25 23:24:00,70.0,30.5,25.10,ESE,115,4.0,4.0,23,0.00,,---,0.00,VWS V14.01,2013-08-26 04:24:00,
2013-08-25 23:26:00,70.2,30.7,25.10,SE,126,2.7,4.0,23,0.00,,---,0.00,VWS V14.01,2013-08-26 04:26:00,
2013-08-25 23:27:00,70.2,30.7,25.10,SE,126,2.7,2.7,23,0.00,,---,0.00,VWS V14.01,2013-08-26 04:27:00,
2013-08-25 23:29:00,70.0,30.5,25.10,SE,126,2.7,2.7,23,0.00,,---,0.00,VWS V14.01,2013-08-26 04:29:00,
2013-08-25 23:31:00,69.6,31.3,25.10,SE,126,2.7,2.7,24,0.00,,---,0.00,VWS V14.01,2013-08-26 04:31:00,
2013-08-25 23:32:00,69.6,31.3,25.10,SE,126,2.7,2.7,24,0.00,,---,0.00,VWS V14.01,2013-08-26 04:32:00,
2013-08-25 23:34:00,69.6,31.3,25.10,SE,128,3.1,3.1,24,0.00,,---,0.00,VWS V14.01,2013-08-26 04:34:00,
2013-08-25 23:37:00,69.6,31.3,25.10,SE,124,3.6,3.6,24,0.00,,---,0.00,VWS V14.01,2013-08-26 04:37:00,
2013-08-25 23:38:00,69.1,30.8,25.10,SE,124,2.7,3.6,24,0.00,,---,0.00,VWS V14.01,2013-08-26 04:38:00,
2013-08-25 23:39:00,69.1,30.8,25.10,SE,124,2.7,2.7,24,0.00,,---,0.00,VWS V14.01,2013-08-26 04:39:00,
2013-08-25 23:42:00,69.1,30.8,25.10,SE,132,2.7,2.7,24,0.00,,---,0.00,VWS V14.01,2013-08-26 04:42:00,
2013-08-25 23:43:00,69.1,30.8,25.10,SE,132,2.7,2.7,24,0.00,,---,0.00,VWS V14.01,2013-08-26 04:43:00,
2013-08-25 23:44:00,69.1,30.8,25.10,SE,132,2.7,2.7,24,0.00,,---,0.00,VWS V14.01,2013-08-26 04:44:00,
2013-08-25 23:47:00,68.7,31.5,25.10,SE,137,3.6,3.6,25,0.00,,---,0.00,VWS V14.01,2013-08-26 04:47:00,
2013-08-25 23:48:00,68.7,31.5,25.13,SE,137,3.6,3.6,25,0.00,,---,0.00,VWS V14.01,2013-08-26 04:48:00,
2013-08-25 23:49:00,68.7,31.5,25.13,SE,137,3.6,3.6,25,0.00,,---,0.00,VWS V14.01,2013-08-26 04:49:00,
2013-08-25 23:53:00,68.9,31.7,25.13,SE,143,2.7,3.6,25,0.00,,---,0.00,VWS V14.01,2013-08-26 04:53:00,
2013-08-25 23:55:00,68.9,31.7,25.13,SE,143,2.2,2.7,25,0.00,,---,0.00,VWS V14.01,2013-08-26 04:55:00,
2013-08-25 23:58:00,68.9,31.7,25.13,SE,143,0.0,0.0,25,0.00,,---,0.00,VWS V14.01,2013-08-26 04:58:00,